<?xml version="1.0" encoding="UTF-8" standalone="no" ?>
<gpx xmlns="http://www.topografix.com/GPX/1/1" xmlns:xsi="http://www.w3.org/2001/XMLSchema-instance" xsi:schemaLocation="http://www.topografix.com/GPX/1/1 http://www.topografix.com/GPX/1/1/gpx.xsd" version="1.1" creator="VisuGPX - https://www.visugpx.com">
  <metadata>
    <name>Pignan VTT- Sortie du dimanche 9 mai</name>
    <desc><![CDATA[6 participants
Une crevaison
de jolie petites montées et des décentes glissantes comme ont les aimes]]></desc>
  </metadata>
  <trk>
    <name><![CDATA[09/05/10 08:52:32]]></name>
    <desc><![CDATA[23,53 km 02:46:11 inc stop 0,0 8,5 37,9 km/h battery 53% 2h4m left]]></desc>
    <trkseg>
      <trkpt lat="43.58289" lon="3.76226">
        <ele>107</ele>
        <time>2010-05-09T08:52:32Z</time>
      </trkpt>
      <trkpt lat="43.58313" lon="3.76175">
        <ele>102</ele>
        <time>2010-05-09T08:52:47Z</time>
      </trkpt>
      <trkpt lat="43.5833" lon="3.76117">
        <ele>105</ele>
        <time>2010-05-09T08:53:01Z</time>
      </trkpt>
      <trkpt lat="43.58369" lon="3.76007">
        <ele>98</ele>
        <time>2010-05-09T08:53:16Z</time>
      </trkpt>
      <trkpt lat="43.58407" lon="3.75921">
        <ele>102</ele>
        <time>2010-05-09T08:53:30Z</time>
      </trkpt>
      <trkpt lat="43.5844" lon="3.75832">
        <ele>102</ele>
        <time>2010-05-09T08:53:44Z</time>
      </trkpt>
      <trkpt lat="43.58471" lon="3.75759">
        <ele>103</ele>
        <time>2010-05-09T08:54:00Z</time>
      </trkpt>
      <trkpt lat="43.58471" lon="3.75731">
        <ele>103</ele>
        <time>2010-05-09T08:54:15Z</time>
      </trkpt>
      <trkpt lat="43.58471" lon="3.75733">
        <ele>107</ele>
        <time>2010-05-09T08:54:29Z</time>
      </trkpt>
      <trkpt lat="43.58472" lon="3.7573">
        <ele>107</ele>
        <time>2010-05-09T08:54:43Z</time>
      </trkpt>
      <trkpt lat="43.58471" lon="3.75731">
        <ele>109</ele>
        <time>2010-05-09T08:54:58Z</time>
      </trkpt>
      <trkpt lat="43.58469" lon="3.75737">
        <ele>110</ele>
        <time>2010-05-09T08:55:13Z</time>
      </trkpt>
      <trkpt lat="43.58467" lon="3.75742">
        <ele>110</ele>
        <time>2010-05-09T08:55:28Z</time>
      </trkpt>
      <trkpt lat="43.58467" lon="3.75742">
        <ele>109</ele>
        <time>2010-05-09T08:55:43Z</time>
      </trkpt>
      <trkpt lat="43.58466" lon="3.75739">
        <ele>106</ele>
        <time>2010-05-09T08:55:57Z</time>
      </trkpt>
      <trkpt lat="43.58466" lon="3.75739">
        <ele>107</ele>
        <time>2010-05-09T08:56:11Z</time>
      </trkpt>
      <trkpt lat="43.58464" lon="3.75742">
        <ele>108</ele>
        <time>2010-05-09T08:56:26Z</time>
      </trkpt>
      <trkpt lat="43.58464" lon="3.75742">
        <ele>107</ele>
        <time>2010-05-09T08:56:41Z</time>
      </trkpt>
      <trkpt lat="43.58465" lon="3.75742">
        <ele>104</ele>
        <time>2010-05-09T08:56:56Z</time>
      </trkpt>
      <trkpt lat="43.58466" lon="3.75741">
        <ele>102</ele>
        <time>2010-05-09T08:57:11Z</time>
      </trkpt>
      <trkpt lat="43.58467" lon="3.75739">
        <ele>103</ele>
        <time>2010-05-09T08:57:25Z</time>
      </trkpt>
      <trkpt lat="43.58467" lon="3.75739">
        <ele>103</ele>
        <time>2010-05-09T08:57:41Z</time>
      </trkpt>
      <trkpt lat="43.58474" lon="3.75735">
        <ele>104</ele>
        <time>2010-05-09T08:57:58Z</time>
      </trkpt>
      <trkpt lat="43.58465" lon="3.75741">
        <ele>103</ele>
        <time>2010-05-09T08:58:17Z</time>
      </trkpt>
      <trkpt lat="43.58467" lon="3.75739">
        <ele>103</ele>
        <time>2010-05-09T08:58:31Z</time>
      </trkpt>
      <trkpt lat="43.58467" lon="3.75739">
        <ele>103</ele>
        <time>2010-05-09T08:58:46Z</time>
      </trkpt>
      <trkpt lat="43.58467" lon="3.75739">
        <ele>103</ele>
        <time>2010-05-09T08:59:01Z</time>
      </trkpt>
      <trkpt lat="43.58467" lon="3.75738">
        <ele>102</ele>
        <time>2010-05-09T08:59:16Z</time>
      </trkpt>
      <trkpt lat="43.58467" lon="3.75738">
        <ele>102</ele>
        <time>2010-05-09T08:59:30Z</time>
      </trkpt>
      <trkpt lat="43.58467" lon="3.75738">
        <ele>101</ele>
        <time>2010-05-09T08:59:47Z</time>
      </trkpt>
      <trkpt lat="43.58467" lon="3.75738">
        <ele>101</ele>
        <time>2010-05-09T09:00:02Z</time>
      </trkpt>
      <trkpt lat="43.58467" lon="3.75738">
        <ele>101</ele>
        <time>2010-05-09T09:00:16Z</time>
      </trkpt>
      <trkpt lat="43.58467" lon="3.75738">
        <ele>101</ele>
        <time>2010-05-09T09:00:31Z</time>
      </trkpt>
      <trkpt lat="43.58467" lon="3.75738">
        <ele>101</ele>
        <time>2010-05-09T09:00:45Z</time>
      </trkpt>
      <trkpt lat="43.58469" lon="3.75737">
        <ele>100</ele>
        <time>2010-05-09T09:01:03Z</time>
      </trkpt>
      <trkpt lat="43.58467" lon="3.75737">
        <ele>100</ele>
        <time>2010-05-09T09:01:18Z</time>
      </trkpt>
      <trkpt lat="43.58469" lon="3.75728">
        <ele>100</ele>
        <time>2010-05-09T09:01:34Z</time>
      </trkpt>
      <trkpt lat="43.58469" lon="3.7573">
        <ele>102</ele>
        <time>2010-05-09T09:01:51Z</time>
      </trkpt>
      <trkpt lat="43.58469" lon="3.7573">
        <ele>105</ele>
        <time>2010-05-09T09:02:06Z</time>
      </trkpt>
      <trkpt lat="43.58468" lon="3.75727">
        <ele>105</ele>
        <time>2010-05-09T09:02:21Z</time>
      </trkpt>
      <trkpt lat="43.58468" lon="3.75728">
        <ele>104</ele>
        <time>2010-05-09T09:02:36Z</time>
      </trkpt>
      <trkpt lat="43.58468" lon="3.75728">
        <ele>103</ele>
        <time>2010-05-09T09:02:51Z</time>
      </trkpt>
      <trkpt lat="43.58468" lon="3.75727">
        <ele>102</ele>
        <time>2010-05-09T09:03:06Z</time>
      </trkpt>
      <trkpt lat="43.58467" lon="3.75728">
        <ele>105</ele>
        <time>2010-05-09T09:03:21Z</time>
      </trkpt>
      <trkpt lat="43.58468" lon="3.75727">
        <ele>109</ele>
        <time>2010-05-09T09:03:36Z</time>
      </trkpt>
      <trkpt lat="43.58469" lon="3.75723">
        <ele>108</ele>
        <time>2010-05-09T09:03:51Z</time>
      </trkpt>
      <trkpt lat="43.58477" lon="3.75732">
        <ele>131</ele>
        <time>2010-05-09T09:04:08Z</time>
      </trkpt>
      <trkpt lat="43.58469" lon="3.75723">
        <ele>109</ele>
        <time>2010-05-09T09:04:23Z</time>
      </trkpt>
      <trkpt lat="43.58468" lon="3.75723">
        <ele>110</ele>
        <time>2010-05-09T09:04:38Z</time>
      </trkpt>
      <trkpt lat="43.58468" lon="3.75726">
        <ele>108</ele>
        <time>2010-05-09T09:04:53Z</time>
      </trkpt>
      <trkpt lat="43.58468" lon="3.75726">
        <ele>106</ele>
        <time>2010-05-09T09:05:07Z</time>
      </trkpt>
      <trkpt lat="43.58473" lon="3.75727">
        <ele>104</ele>
        <time>2010-05-09T09:05:20Z</time>
      </trkpt>
      <trkpt lat="43.58435" lon="3.75733">
        <ele>106</ele>
        <time>2010-05-09T09:05:35Z</time>
      </trkpt>
      <trkpt lat="43.58406" lon="3.75637">
        <ele>101</ele>
        <time>2010-05-09T09:05:50Z</time>
      </trkpt>
      <trkpt lat="43.58364" lon="3.7554">
        <ele>102</ele>
        <time>2010-05-09T09:06:07Z</time>
      </trkpt>
      <trkpt lat="43.58322" lon="3.75442">
        <ele>99</ele>
        <time>2010-05-09T09:06:22Z</time>
      </trkpt>
      <trkpt lat="43.58282" lon="3.75351">
        <ele>98</ele>
        <time>2010-05-09T09:06:38Z</time>
      </trkpt>
      <trkpt lat="43.58246" lon="3.75262">
        <ele>99</ele>
        <time>2010-05-09T09:06:52Z</time>
      </trkpt>
      <trkpt lat="43.58205" lon="3.75173">
        <ele>101</ele>
        <time>2010-05-09T09:07:06Z</time>
      </trkpt>
      <trkpt lat="43.58172" lon="3.75099">
        <ele>101</ele>
        <time>2010-05-09T09:07:20Z</time>
      </trkpt>
      <trkpt lat="43.58136" lon="3.75016">
        <ele>101</ele>
        <time>2010-05-09T09:07:35Z</time>
      </trkpt>
      <trkpt lat="43.58097" lon="3.74932">
        <ele>102</ele>
        <time>2010-05-09T09:07:49Z</time>
      </trkpt>
      <trkpt lat="43.58051" lon="3.74836">
        <ele>100</ele>
        <time>2010-05-09T09:08:06Z</time>
      </trkpt>
      <trkpt lat="43.58018" lon="3.74759">
        <ele>100</ele>
        <time>2010-05-09T09:08:20Z</time>
      </trkpt>
      <trkpt lat="43.57977" lon="3.74674">
        <ele>99</ele>
        <time>2010-05-09T09:08:35Z</time>
      </trkpt>
      <trkpt lat="43.57944" lon="3.74606">
        <ele>104</ele>
        <time>2010-05-09T09:08:48Z</time>
      </trkpt>
      <trkpt lat="43.57922" lon="3.7453">
        <ele>105</ele>
        <time>2010-05-09T09:09:03Z</time>
      </trkpt>
      <trkpt lat="43.57893" lon="3.74469">
        <ele>112</ele>
        <time>2010-05-09T09:09:18Z</time>
      </trkpt>
      <trkpt lat="43.57871" lon="3.74417">
        <ele>114</ele>
        <time>2010-05-09T09:09:31Z</time>
      </trkpt>
      <trkpt lat="43.5789" lon="3.7437">
        <ele>117</ele>
        <time>2010-05-09T09:09:46Z</time>
      </trkpt>
      <trkpt lat="43.57916" lon="3.74354">
        <ele>118</ele>
        <time>2010-05-09T09:10:01Z</time>
      </trkpt>
      <trkpt lat="43.57951" lon="3.74372">
        <ele>119</ele>
        <time>2010-05-09T09:10:16Z</time>
      </trkpt>
      <trkpt lat="43.5798" lon="3.74413">
        <ele>125</ele>
        <time>2010-05-09T09:10:31Z</time>
      </trkpt>
      <trkpt lat="43.57997" lon="3.74464">
        <ele>127</ele>
        <time>2010-05-09T09:10:46Z</time>
      </trkpt>
      <trkpt lat="43.58023" lon="3.74526">
        <ele>132</ele>
        <time>2010-05-09T09:11:01Z</time>
      </trkpt>
      <trkpt lat="43.5806" lon="3.74537">
        <ele>128</ele>
        <time>2010-05-09T09:11:14Z</time>
      </trkpt>
      <trkpt lat="43.58089" lon="3.74504">
        <ele>130</ele>
        <time>2010-05-09T09:11:27Z</time>
      </trkpt>
      <trkpt lat="43.58134" lon="3.74472">
        <ele>130</ele>
        <time>2010-05-09T09:11:42Z</time>
      </trkpt>
      <trkpt lat="43.58173" lon="3.7445">
        <ele>132</ele>
        <time>2010-05-09T09:11:55Z</time>
      </trkpt>
      <trkpt lat="43.58204" lon="3.74406">
        <ele>136</ele>
        <time>2010-05-09T09:12:10Z</time>
      </trkpt>
      <trkpt lat="43.58226" lon="3.74347">
        <ele>135</ele>
        <time>2010-05-09T09:12:24Z</time>
      </trkpt>
      <trkpt lat="43.58247" lon="3.74295">
        <ele>139</ele>
        <time>2010-05-09T09:12:39Z</time>
      </trkpt>
      <trkpt lat="43.5826" lon="3.74249">
        <ele>140</ele>
        <time>2010-05-09T09:12:54Z</time>
      </trkpt>
      <trkpt lat="43.58275" lon="3.74199">
        <ele>144</ele>
        <time>2010-05-09T09:13:08Z</time>
      </trkpt>
      <trkpt lat="43.58287" lon="3.74154">
        <ele>149</ele>
        <time>2010-05-09T09:13:23Z</time>
      </trkpt>
      <trkpt lat="43.58303" lon="3.74123">
        <ele>147</ele>
        <time>2010-05-09T09:13:36Z</time>
      </trkpt>
      <trkpt lat="43.58323" lon="3.74114">
        <ele>149</ele>
        <time>2010-05-09T09:13:51Z</time>
      </trkpt>
      <trkpt lat="43.58324" lon="3.74113">
        <ele>151</ele>
        <time>2010-05-09T09:14:06Z</time>
      </trkpt>
      <trkpt lat="43.58322" lon="3.741">
        <ele>149</ele>
        <time>2010-05-09T09:14:21Z</time>
      </trkpt>
      <trkpt lat="43.58313" lon="3.74137">
        <ele>150</ele>
        <time>2010-05-09T09:14:34Z</time>
      </trkpt>
      <trkpt lat="43.58299" lon="3.7417">
        <ele>150</ele>
        <time>2010-05-09T09:14:47Z</time>
      </trkpt>
      <trkpt lat="43.58308" lon="3.74157">
        <ele>146</ele>
        <time>2010-05-09T09:15:03Z</time>
      </trkpt>
      <trkpt lat="43.58319" lon="3.74129">
        <ele>146</ele>
        <time>2010-05-09T09:15:16Z</time>
      </trkpt>
      <trkpt lat="43.58326" lon="3.74104">
        <ele>149</ele>
        <time>2010-05-09T09:15:31Z</time>
      </trkpt>
      <trkpt lat="43.58335" lon="3.74107">
        <ele>151</ele>
        <time>2010-05-09T09:15:46Z</time>
      </trkpt>
      <trkpt lat="43.58373" lon="3.74044">
        <ele>148</ele>
        <time>2010-05-09T09:16:01Z</time>
      </trkpt>
      <trkpt lat="43.58405" lon="3.73981">
        <ele>147</ele>
        <time>2010-05-09T09:16:16Z</time>
      </trkpt>
      <trkpt lat="43.58419" lon="3.73919">
        <ele>149</ele>
        <time>2010-05-09T09:16:31Z</time>
      </trkpt>
      <trkpt lat="43.5843" lon="3.73851">
        <ele>150</ele>
        <time>2010-05-09T09:16:48Z</time>
      </trkpt>
      <trkpt lat="43.5843" lon="3.73813">
        <ele>154</ele>
        <time>2010-05-09T09:17:03Z</time>
      </trkpt>
      <trkpt lat="43.58442" lon="3.73776">
        <ele>162</ele>
        <time>2010-05-09T09:17:18Z</time>
      </trkpt>
      <trkpt lat="43.58459" lon="3.73751">
        <ele>164</ele>
        <time>2010-05-09T09:17:33Z</time>
      </trkpt>
      <trkpt lat="43.58474" lon="3.73723">
        <ele>164</ele>
        <time>2010-05-09T09:17:47Z</time>
      </trkpt>
      <trkpt lat="43.585" lon="3.73669">
        <ele>165</ele>
        <time>2010-05-09T09:18:01Z</time>
      </trkpt>
      <trkpt lat="43.5855" lon="3.73585">
        <ele>161</ele>
        <time>2010-05-09T09:18:16Z</time>
      </trkpt>
      <trkpt lat="43.586" lon="3.73606">
        <ele>163</ele>
        <time>2010-05-09T09:18:29Z</time>
      </trkpt>
      <trkpt lat="43.58649" lon="3.7362">
        <ele>161</ele>
        <time>2010-05-09T09:18:42Z</time>
      </trkpt>
      <trkpt lat="43.58688" lon="3.73629">
        <ele>164</ele>
        <time>2010-05-09T09:18:57Z</time>
      </trkpt>
      <trkpt lat="43.58727" lon="3.7366">
        <ele>166</ele>
        <time>2010-05-09T09:19:09Z</time>
      </trkpt>
      <trkpt lat="43.58756" lon="3.73643">
        <ele>163</ele>
        <time>2010-05-09T09:19:22Z</time>
      </trkpt>
      <trkpt lat="43.58787" lon="3.73631">
        <ele>163</ele>
        <time>2010-05-09T09:19:36Z</time>
      </trkpt>
      <trkpt lat="43.58818" lon="3.73603">
        <ele>169</ele>
        <time>2010-05-09T09:19:51Z</time>
      </trkpt>
      <trkpt lat="43.58844" lon="3.7358">
        <ele>170</ele>
        <time>2010-05-09T09:20:06Z</time>
      </trkpt>
      <trkpt lat="43.5886" lon="3.73567">
        <ele>171</ele>
        <time>2010-05-09T09:20:20Z</time>
      </trkpt>
      <trkpt lat="43.58884" lon="3.73553">
        <ele>175</ele>
        <time>2010-05-09T09:20:33Z</time>
      </trkpt>
      <trkpt lat="43.58909" lon="3.73526">
        <ele>178</ele>
        <time>2010-05-09T09:20:46Z</time>
      </trkpt>
      <trkpt lat="43.58941" lon="3.73467">
        <ele>179</ele>
        <time>2010-05-09T09:21:01Z</time>
      </trkpt>
      <trkpt lat="43.58984" lon="3.73427">
        <ele>181</ele>
        <time>2010-05-09T09:21:18Z</time>
      </trkpt>
      <trkpt lat="43.59043" lon="3.73421">
        <ele>182</ele>
        <time>2010-05-09T09:21:33Z</time>
      </trkpt>
      <trkpt lat="43.59101" lon="3.73401">
        <ele>178</ele>
        <time>2010-05-09T09:21:49Z</time>
      </trkpt>
      <trkpt lat="43.5914" lon="3.73377">
        <ele>183</ele>
        <time>2010-05-09T09:22:07Z</time>
      </trkpt>
      <trkpt lat="43.59185" lon="3.73341">
        <ele>181</ele>
        <time>2010-05-09T09:22:24Z</time>
      </trkpt>
      <trkpt lat="43.59219" lon="3.73311">
        <ele>180</ele>
        <time>2010-05-09T09:22:40Z</time>
      </trkpt>
      <trkpt lat="43.5923" lon="3.733">
        <ele>180</ele>
        <time>2010-05-09T09:22:55Z</time>
      </trkpt>
      <trkpt lat="43.59232" lon="3.7329">
        <ele>185</ele>
        <time>2010-05-09T09:23:11Z</time>
      </trkpt>
      <trkpt lat="43.59237" lon="3.73281">
        <ele>190</ele>
        <time>2010-05-09T09:23:28Z</time>
      </trkpt>
      <trkpt lat="43.59246" lon="3.73259">
        <ele>195</ele>
        <time>2010-05-09T09:23:43Z</time>
      </trkpt>
      <trkpt lat="43.59251" lon="3.73253">
        <ele>193</ele>
        <time>2010-05-09T09:23:57Z</time>
      </trkpt>
      <trkpt lat="43.59258" lon="3.73232">
        <ele>193</ele>
        <time>2010-05-09T09:24:12Z</time>
      </trkpt>
      <trkpt lat="43.59261" lon="3.73227">
        <ele>194</ele>
        <time>2010-05-09T09:24:26Z</time>
      </trkpt>
      <trkpt lat="43.59277" lon="3.73196">
        <ele>195</ele>
        <time>2010-05-09T09:24:41Z</time>
      </trkpt>
      <trkpt lat="43.59301" lon="3.73141">
        <ele>196</ele>
        <time>2010-05-09T09:24:56Z</time>
      </trkpt>
      <trkpt lat="43.59336" lon="3.73122">
        <ele>197</ele>
        <time>2010-05-09T09:25:10Z</time>
      </trkpt>
      <trkpt lat="43.59385" lon="3.73113">
        <ele>201</ele>
        <time>2010-05-09T09:25:23Z</time>
      </trkpt>
      <trkpt lat="43.59448" lon="3.73094">
        <ele>198</ele>
        <time>2010-05-09T09:25:38Z</time>
      </trkpt>
      <trkpt lat="43.59502" lon="3.73059">
        <ele>203</ele>
        <time>2010-05-09T09:25:52Z</time>
      </trkpt>
      <trkpt lat="43.59545" lon="3.73027">
        <ele>202</ele>
        <time>2010-05-09T09:26:07Z</time>
      </trkpt>
      <trkpt lat="43.59545" lon="3.7303">
        <ele>202</ele>
        <time>2010-05-09T09:26:21Z</time>
      </trkpt>
      <trkpt lat="43.59537" lon="3.73025">
        <ele>203</ele>
        <time>2010-05-09T09:26:36Z</time>
      </trkpt>
      <trkpt lat="43.59563" lon="3.73046">
        <ele>206</ele>
        <time>2010-05-09T09:26:49Z</time>
      </trkpt>
      <trkpt lat="43.59607" lon="3.73062">
        <ele>202</ele>
        <time>2010-05-09T09:27:02Z</time>
      </trkpt>
      <trkpt lat="43.59662" lon="3.7304">
        <ele>198</ele>
        <time>2010-05-09T09:27:15Z</time>
      </trkpt>
      <trkpt lat="43.5967" lon="3.73004">
        <ele>197</ele>
        <time>2010-05-09T09:27:29Z</time>
      </trkpt>
      <trkpt lat="43.59663" lon="3.72959">
        <ele>197</ele>
        <time>2010-05-09T09:27:42Z</time>
      </trkpt>
      <trkpt lat="43.59628" lon="3.72901">
        <ele>195</ele>
        <time>2010-05-09T09:27:56Z</time>
      </trkpt>
      <trkpt lat="43.59631" lon="3.72907">
        <ele>196</ele>
        <time>2010-05-09T09:28:11Z</time>
      </trkpt>
      <trkpt lat="43.59663" lon="3.72953">
        <ele>196</ele>
        <time>2010-05-09T09:28:26Z</time>
      </trkpt>
      <trkpt lat="43.5967" lon="3.73028">
        <ele>206</ele>
        <time>2010-05-09T09:28:45Z</time>
      </trkpt>
      <trkpt lat="43.59631" lon="3.73057">
        <ele>199</ele>
        <time>2010-05-09T09:29:01Z</time>
      </trkpt>
      <trkpt lat="43.59586" lon="3.73053">
        <ele>197</ele>
        <time>2010-05-09T09:29:15Z</time>
      </trkpt>
      <trkpt lat="43.59537" lon="3.73024">
        <ele>197</ele>
        <time>2010-05-09T09:29:28Z</time>
      </trkpt>
      <trkpt lat="43.59462" lon="3.7299">
        <ele>192</ele>
        <time>2010-05-09T09:29:42Z</time>
      </trkpt>
      <trkpt lat="43.59481" lon="3.72859">
        <ele>193</ele>
        <time>2010-05-09T09:29:58Z</time>
      </trkpt>
      <trkpt lat="43.59523" lon="3.72748">
        <ele>184</ele>
        <time>2010-05-09T09:30:13Z</time>
      </trkpt>
      <trkpt lat="43.59579" lon="3.72752">
        <ele>185</ele>
        <time>2010-05-09T09:30:28Z</time>
      </trkpt>
      <trkpt lat="43.59637" lon="3.72732">
        <ele>189</ele>
        <time>2010-05-09T09:30:43Z</time>
      </trkpt>
      <trkpt lat="43.5967" lon="3.72685">
        <ele>188</ele>
        <time>2010-05-09T09:30:56Z</time>
      </trkpt>
      <trkpt lat="43.59705" lon="3.72653">
        <ele>188</ele>
        <time>2010-05-09T09:31:09Z</time>
      </trkpt>
      <trkpt lat="43.59784" lon="3.72612">
        <ele>198</ele>
        <time>2010-05-09T09:31:24Z</time>
      </trkpt>
      <trkpt lat="43.59857" lon="3.72599">
        <ele>199</ele>
        <time>2010-05-09T09:31:39Z</time>
      </trkpt>
      <trkpt lat="43.59841" lon="3.72539">
        <ele>190</ele>
        <time>2010-05-09T09:31:54Z</time>
      </trkpt>
      <trkpt lat="43.59819" lon="3.72498">
        <ele>191</ele>
        <time>2010-05-09T09:32:09Z</time>
      </trkpt>
      <trkpt lat="43.59796" lon="3.72469">
        <ele>194</ele>
        <time>2010-05-09T09:32:22Z</time>
      </trkpt>
      <trkpt lat="43.59766" lon="3.72443">
        <ele>194</ele>
        <time>2010-05-09T09:32:38Z</time>
      </trkpt>
      <trkpt lat="43.59747" lon="3.72408">
        <ele>197</ele>
        <time>2010-05-09T09:32:53Z</time>
      </trkpt>
      <trkpt lat="43.59735" lon="3.72364">
        <ele>200</ele>
        <time>2010-05-09T09:33:06Z</time>
      </trkpt>
      <trkpt lat="43.59732" lon="3.7231">
        <ele>204</ele>
        <time>2010-05-09T09:33:22Z</time>
      </trkpt>
      <trkpt lat="43.59724" lon="3.72245">
        <ele>205</ele>
        <time>2010-05-09T09:33:38Z</time>
      </trkpt>
      <trkpt lat="43.59721" lon="3.72185">
        <ele>208</ele>
        <time>2010-05-09T09:33:53Z</time>
      </trkpt>
      <trkpt lat="43.59713" lon="3.72134">
        <ele>210</ele>
        <time>2010-05-09T09:34:11Z</time>
      </trkpt>
      <trkpt lat="43.59722" lon="3.72104">
        <ele>221</ele>
        <time>2010-05-09T09:34:27Z</time>
      </trkpt>
      <trkpt lat="43.59716" lon="3.72067">
        <ele>213</ele>
        <time>2010-05-09T09:34:42Z</time>
      </trkpt>
      <trkpt lat="43.59715" lon="3.72025">
        <ele>218</ele>
        <time>2010-05-09T09:34:58Z</time>
      </trkpt>
      <trkpt lat="43.59718" lon="3.71995">
        <ele>222</ele>
        <time>2010-05-09T09:35:14Z</time>
      </trkpt>
      <trkpt lat="43.59725" lon="3.71968">
        <ele>222</ele>
        <time>2010-05-09T09:35:29Z</time>
      </trkpt>
      <trkpt lat="43.59723" lon="3.71949">
        <ele>224</ele>
        <time>2010-05-09T09:35:42Z</time>
      </trkpt>
      <trkpt lat="43.59725" lon="3.71924">
        <ele>227</ele>
        <time>2010-05-09T09:35:57Z</time>
      </trkpt>
      <trkpt lat="43.59727" lon="3.71897">
        <ele>231</ele>
        <time>2010-05-09T09:36:11Z</time>
      </trkpt>
      <trkpt lat="43.59735" lon="3.71873">
        <ele>235</ele>
        <time>2010-05-09T09:36:25Z</time>
      </trkpt>
      <trkpt lat="43.59751" lon="3.71841">
        <ele>232</ele>
        <time>2010-05-09T09:36:38Z</time>
      </trkpt>
      <trkpt lat="43.59764" lon="3.71811">
        <ele>232</ele>
        <time>2010-05-09T09:36:51Z</time>
      </trkpt>
      <trkpt lat="43.59776" lon="3.71778">
        <ele>233</ele>
        <time>2010-05-09T09:37:06Z</time>
      </trkpt>
      <trkpt lat="43.59783" lon="3.71749">
        <ele>236</ele>
        <time>2010-05-09T09:37:19Z</time>
      </trkpt>
      <trkpt lat="43.59793" lon="3.7172">
        <ele>241</ele>
        <time>2010-05-09T09:37:34Z</time>
      </trkpt>
      <trkpt lat="43.59806" lon="3.71697">
        <ele>244</ele>
        <time>2010-05-09T09:37:50Z</time>
      </trkpt>
      <trkpt lat="43.59805" lon="3.71696">
        <ele>245</ele>
        <time>2010-05-09T09:38:04Z</time>
      </trkpt>
      <trkpt lat="43.59803" lon="3.71699">
        <ele>245</ele>
        <time>2010-05-09T09:38:18Z</time>
      </trkpt>
      <trkpt lat="43.59806" lon="3.71693">
        <ele>246</ele>
        <time>2010-05-09T09:38:31Z</time>
      </trkpt>
      <trkpt lat="43.59806" lon="3.71693">
        <ele>244</ele>
        <time>2010-05-09T09:38:44Z</time>
      </trkpt>
      <trkpt lat="43.59806" lon="3.71689">
        <ele>246</ele>
        <time>2010-05-09T09:38:59Z</time>
      </trkpt>
      <trkpt lat="43.59809" lon="3.71685">
        <ele>242</ele>
        <time>2010-05-09T09:39:12Z</time>
      </trkpt>
      <trkpt lat="43.59851" lon="3.71667">
        <ele>241</ele>
        <time>2010-05-09T09:39:25Z</time>
      </trkpt>
      <trkpt lat="43.59891" lon="3.71575">
        <ele>237</ele>
        <time>2010-05-09T09:39:40Z</time>
      </trkpt>
      <trkpt lat="43.59925" lon="3.71544">
        <ele>233</ele>
        <time>2010-05-09T09:39:55Z</time>
      </trkpt>
      <trkpt lat="43.59926" lon="3.7154">
        <ele>233</ele>
        <time>2010-05-09T09:40:11Z</time>
      </trkpt>
      <trkpt lat="43.59925" lon="3.71518">
        <ele>233</ele>
        <time>2010-05-09T09:40:26Z</time>
      </trkpt>
      <trkpt lat="43.59911" lon="3.71472">
        <ele>223</ele>
        <time>2010-05-09T09:40:41Z</time>
      </trkpt>
      <trkpt lat="43.59903" lon="3.71431">
        <ele>219</ele>
        <time>2010-05-09T09:40:57Z</time>
      </trkpt>
      <trkpt lat="43.59892" lon="3.71384">
        <ele>209</ele>
        <time>2010-05-09T09:41:13Z</time>
      </trkpt>
      <trkpt lat="43.59878" lon="3.71309">
        <ele>206</ele>
        <time>2010-05-09T09:41:29Z</time>
      </trkpt>
      <trkpt lat="43.59885" lon="3.71205">
        <ele>202</ele>
        <time>2010-05-09T09:41:46Z</time>
      </trkpt>
      <trkpt lat="43.59916" lon="3.71114">
        <ele>175</ele>
        <time>2010-05-09T09:42:04Z</time>
      </trkpt>
      <trkpt lat="43.59936" lon="3.7104">
        <ele>180</ele>
        <time>2010-05-09T09:42:22Z</time>
      </trkpt>
      <trkpt lat="43.59947" lon="3.70982">
        <ele>178</ele>
        <time>2010-05-09T09:42:39Z</time>
      </trkpt>
      <trkpt lat="43.59959" lon="3.70948">
        <ele>187</ele>
        <time>2010-05-09T09:42:54Z</time>
      </trkpt>
      <trkpt lat="43.59966" lon="3.70914">
        <ele>197</ele>
        <time>2010-05-09T09:43:10Z</time>
      </trkpt>
      <trkpt lat="43.59964" lon="3.70924">
        <ele>183</ele>
        <time>2010-05-09T09:43:25Z</time>
      </trkpt>
      <trkpt lat="43.59964" lon="3.70916">
        <ele>184</ele>
        <time>2010-05-09T09:43:39Z</time>
      </trkpt>
      <trkpt lat="43.59964" lon="3.70916">
        <ele>184</ele>
        <time>2010-05-09T09:43:54Z</time>
      </trkpt>
      <trkpt lat="43.59964" lon="3.70916">
        <ele>184</ele>
        <time>2010-05-09T09:44:09Z</time>
      </trkpt>
      <trkpt lat="43.59977" lon="3.70881">
        <ele>173</ele>
        <time>2010-05-09T09:44:24Z</time>
      </trkpt>
      <trkpt lat="43.59984" lon="3.70835">
        <ele>187</ele>
        <time>2010-05-09T09:44:39Z</time>
      </trkpt>
      <trkpt lat="43.60017" lon="3.70784">
        <ele>179</ele>
        <time>2010-05-09T09:44:55Z</time>
      </trkpt>
      <trkpt lat="43.60033" lon="3.70741">
        <ele>174</ele>
        <time>2010-05-09T09:45:12Z</time>
      </trkpt>
      <trkpt lat="43.60045" lon="3.70679">
        <ele>181</ele>
        <time>2010-05-09T09:45:32Z</time>
      </trkpt>
      <trkpt lat="43.60057" lon="3.70615">
        <ele>200</ele>
        <time>2010-05-09T09:45:48Z</time>
      </trkpt>
      <trkpt lat="43.60071" lon="3.70556">
        <ele>194</ele>
        <time>2010-05-09T09:46:07Z</time>
      </trkpt>
      <trkpt lat="43.60073" lon="3.70504">
        <ele>207</ele>
        <time>2010-05-09T09:46:25Z</time>
      </trkpt>
      <trkpt lat="43.60076" lon="3.70467">
        <ele>207</ele>
        <time>2010-05-09T09:46:42Z</time>
      </trkpt>
      <trkpt lat="43.60094" lon="3.70437">
        <ele>200</ele>
        <time>2010-05-09T09:46:58Z</time>
      </trkpt>
      <trkpt lat="43.60121" lon="3.70409">
        <ele>234</ele>
        <time>2010-05-09T09:47:17Z</time>
      </trkpt>
      <trkpt lat="43.6015" lon="3.70428">
        <ele>216</ele>
        <time>2010-05-09T09:47:32Z</time>
      </trkpt>
      <trkpt lat="43.60178" lon="3.70434">
        <ele>217</ele>
        <time>2010-05-09T09:47:47Z</time>
      </trkpt>
      <trkpt lat="43.60202" lon="3.70433">
        <ele>238</ele>
        <time>2010-05-09T09:48:03Z</time>
      </trkpt>
      <trkpt lat="43.60228" lon="3.70434">
        <ele>223</ele>
        <time>2010-05-09T09:48:18Z</time>
      </trkpt>
      <trkpt lat="43.60247" lon="3.70436">
        <ele>230</ele>
        <time>2010-05-09T09:48:33Z</time>
      </trkpt>
      <trkpt lat="43.60265" lon="3.70437">
        <ele>227</ele>
        <time>2010-05-09T09:48:50Z</time>
      </trkpt>
      <trkpt lat="43.60273" lon="3.70447">
        <ele>229</ele>
        <time>2010-05-09T09:49:05Z</time>
      </trkpt>
      <trkpt lat="43.60283" lon="3.70463">
        <ele>235</ele>
        <time>2010-05-09T09:49:20Z</time>
      </trkpt>
      <trkpt lat="43.60291" lon="3.70459">
        <ele>236</ele>
        <time>2010-05-09T09:49:34Z</time>
      </trkpt>
      <trkpt lat="43.60299" lon="3.70464">
        <ele>238</ele>
        <time>2010-05-09T09:49:47Z</time>
      </trkpt>
      <trkpt lat="43.60314" lon="3.70467">
        <ele>236</ele>
        <time>2010-05-09T09:50:00Z</time>
      </trkpt>
      <trkpt lat="43.60328" lon="3.70458">
        <ele>237</ele>
        <time>2010-05-09T09:50:13Z</time>
      </trkpt>
      <trkpt lat="43.60335" lon="3.70431">
        <ele>236</ele>
        <time>2010-05-09T09:50:27Z</time>
      </trkpt>
      <trkpt lat="43.60349" lon="3.70413">
        <ele>233</ele>
        <time>2010-05-09T09:50:40Z</time>
      </trkpt>
      <trkpt lat="43.60348" lon="3.70391">
        <ele>235</ele>
        <time>2010-05-09T09:50:53Z</time>
      </trkpt>
      <trkpt lat="43.6032" lon="3.70365">
        <ele>235</ele>
        <time>2010-05-09T09:51:07Z</time>
      </trkpt>
      <trkpt lat="43.60304" lon="3.70353">
        <ele>237</ele>
        <time>2010-05-09T09:51:22Z</time>
      </trkpt>
      <trkpt lat="43.60293" lon="3.70358">
        <ele>239</ele>
        <time>2010-05-09T09:51:37Z</time>
      </trkpt>
      <trkpt lat="43.60292" lon="3.70356">
        <ele>241</ele>
        <time>2010-05-09T09:51:52Z</time>
      </trkpt>
      <trkpt lat="43.60289" lon="3.70353">
        <ele>242</ele>
        <time>2010-05-09T09:52:08Z</time>
      </trkpt>
      <trkpt lat="43.60262" lon="3.70344">
        <ele>244</ele>
        <time>2010-05-09T09:52:23Z</time>
      </trkpt>
      <trkpt lat="43.60241" lon="3.7033">
        <ele>247</ele>
        <time>2010-05-09T09:52:38Z</time>
      </trkpt>
      <trkpt lat="43.60222" lon="3.70311">
        <ele>250</ele>
        <time>2010-05-09T09:52:52Z</time>
      </trkpt>
      <trkpt lat="43.60195" lon="3.70288">
        <ele>254</ele>
        <time>2010-05-09T09:53:05Z</time>
      </trkpt>
      <trkpt lat="43.60164" lon="3.70238">
        <ele>252</ele>
        <time>2010-05-09T09:53:20Z</time>
      </trkpt>
      <trkpt lat="43.60155" lon="3.70227">
        <ele>253</ele>
        <time>2010-05-09T09:53:36Z</time>
      </trkpt>
      <trkpt lat="43.60154" lon="3.70227">
        <ele>254</ele>
        <time>2010-05-09T09:53:51Z</time>
      </trkpt>
      <trkpt lat="43.60148" lon="3.7019">
        <ele>248</ele>
        <time>2010-05-09T09:54:06Z</time>
      </trkpt>
      <trkpt lat="43.60122" lon="3.70133">
        <ele>250</ele>
        <time>2010-05-09T09:54:21Z</time>
      </trkpt>
      <trkpt lat="43.60122" lon="3.7012">
        <ele>248</ele>
        <time>2010-05-09T09:54:35Z</time>
      </trkpt>
      <trkpt lat="43.60122" lon="3.70119">
        <ele>250</ele>
        <time>2010-05-09T09:54:49Z</time>
      </trkpt>
      <trkpt lat="43.60138" lon="3.70115">
        <ele>248</ele>
        <time>2010-05-09T09:55:04Z</time>
      </trkpt>
      <trkpt lat="43.60154" lon="3.70102">
        <ele>248</ele>
        <time>2010-05-09T09:55:22Z</time>
      </trkpt>
      <trkpt lat="43.60159" lon="3.70091">
        <ele>246</ele>
        <time>2010-05-09T09:55:38Z</time>
      </trkpt>
      <trkpt lat="43.60215" lon="3.69989">
        <ele>243</ele>
        <time>2010-05-09T09:55:55Z</time>
      </trkpt>
      <trkpt lat="43.60213" lon="3.69932">
        <ele>179</ele>
        <time>2010-05-09T09:56:14Z</time>
      </trkpt>
      <trkpt lat="43.60181" lon="3.69867">
        <ele>180</ele>
        <time>2010-05-09T09:56:30Z</time>
      </trkpt>
      <trkpt lat="43.60167" lon="3.69815">
        <ele>208</ele>
        <time>2010-05-09T09:56:47Z</time>
      </trkpt>
      <trkpt lat="43.60186" lon="3.69824">
        <ele>204</ele>
        <time>2010-05-09T09:57:04Z</time>
      </trkpt>
      <trkpt lat="43.60202" lon="3.69823">
        <ele>200</ele>
        <time>2010-05-09T09:57:19Z</time>
      </trkpt>
      <trkpt lat="43.60204" lon="3.6983">
        <ele>215</ele>
        <time>2010-05-09T09:57:35Z</time>
      </trkpt>
      <trkpt lat="43.6022" lon="3.69846">
        <ele>216</ele>
        <time>2010-05-09T09:57:49Z</time>
      </trkpt>
      <trkpt lat="43.60221" lon="3.69849">
        <ele>218</ele>
        <time>2010-05-09T09:58:02Z</time>
      </trkpt>
      <trkpt lat="43.6023" lon="3.69849">
        <ele>218</ele>
        <time>2010-05-09T09:58:17Z</time>
      </trkpt>
      <trkpt lat="43.60244" lon="3.69855">
        <ele>221</ele>
        <time>2010-05-09T09:58:31Z</time>
      </trkpt>
      <trkpt lat="43.60254" lon="3.69858">
        <ele>225</ele>
        <time>2010-05-09T09:58:44Z</time>
      </trkpt>
      <trkpt lat="43.60262" lon="3.69853">
        <ele>223</ele>
        <time>2010-05-09T09:58:57Z</time>
      </trkpt>
      <trkpt lat="43.60262" lon="3.69867">
        <ele>220</ele>
        <time>2010-05-09T09:59:11Z</time>
      </trkpt>
      <trkpt lat="43.60277" lon="3.69874">
        <ele>225</ele>
        <time>2010-05-09T09:59:24Z</time>
      </trkpt>
      <trkpt lat="43.60292" lon="3.69877">
        <ele>228</ele>
        <time>2010-05-09T09:59:37Z</time>
      </trkpt>
      <trkpt lat="43.603" lon="3.69863">
        <ele>231</ele>
        <time>2010-05-09T09:59:50Z</time>
      </trkpt>
      <trkpt lat="43.60315" lon="3.69846">
        <ele>232</ele>
        <time>2010-05-09T10:00:06Z</time>
      </trkpt>
      <trkpt lat="43.6032" lon="3.69841">
        <ele>232</ele>
        <time>2010-05-09T10:00:19Z</time>
      </trkpt>
      <trkpt lat="43.60319" lon="3.69836">
        <ele>230</ele>
        <time>2010-05-09T10:00:34Z</time>
      </trkpt>
      <trkpt lat="43.6032" lon="3.69835">
        <ele>233</ele>
        <time>2010-05-09T10:00:47Z</time>
      </trkpt>
      <trkpt lat="43.6032" lon="3.69834">
        <ele>234</ele>
        <time>2010-05-09T10:01:01Z</time>
      </trkpt>
      <trkpt lat="43.60319" lon="3.69834">
        <ele>234</ele>
        <time>2010-05-09T10:01:15Z</time>
      </trkpt>
      <trkpt lat="43.60319" lon="3.69835">
        <ele>235</ele>
        <time>2010-05-09T10:01:28Z</time>
      </trkpt>
      <trkpt lat="43.60319" lon="3.69836">
        <ele>235</ele>
        <time>2010-05-09T10:01:41Z</time>
      </trkpt>
      <trkpt lat="43.60318" lon="3.69836">
        <ele>235</ele>
        <time>2010-05-09T10:01:54Z</time>
      </trkpt>
      <trkpt lat="43.60318" lon="3.69836">
        <ele>234</ele>
        <time>2010-05-09T10:02:09Z</time>
      </trkpt>
      <trkpt lat="43.60319" lon="3.69835">
        <ele>234</ele>
        <time>2010-05-09T10:02:23Z</time>
      </trkpt>
      <trkpt lat="43.60319" lon="3.69835">
        <ele>234</ele>
        <time>2010-05-09T10:02:37Z</time>
      </trkpt>
      <trkpt lat="43.60319" lon="3.69836">
        <ele>236</ele>
        <time>2010-05-09T10:02:50Z</time>
      </trkpt>
      <trkpt lat="43.60324" lon="3.69814">
        <ele>223</ele>
        <time>2010-05-09T10:03:05Z</time>
      </trkpt>
      <trkpt lat="43.6034" lon="3.69818">
        <ele>232</ele>
        <time>2010-05-09T10:03:18Z</time>
      </trkpt>
      <trkpt lat="43.60361" lon="3.69802">
        <ele>229</ele>
        <time>2010-05-09T10:03:33Z</time>
      </trkpt>
      <trkpt lat="43.6038" lon="3.6978">
        <ele>222</ele>
        <time>2010-05-09T10:03:48Z</time>
      </trkpt>
      <trkpt lat="43.604" lon="3.69778">
        <ele>220</ele>
        <time>2010-05-09T10:04:03Z</time>
      </trkpt>
      <trkpt lat="43.60448" lon="3.69756">
        <ele>213</ele>
        <time>2010-05-09T10:04:19Z</time>
      </trkpt>
      <trkpt lat="43.60479" lon="3.69739">
        <ele>211</ele>
        <time>2010-05-09T10:04:33Z</time>
      </trkpt>
      <trkpt lat="43.60504" lon="3.69682">
        <ele>204</ele>
        <time>2010-05-09T10:04:51Z</time>
      </trkpt>
      <trkpt lat="43.6052" lon="3.69659">
        <ele>188</ele>
        <time>2010-05-09T10:05:08Z</time>
      </trkpt>
      <trkpt lat="43.60546" lon="3.6962">
        <ele>197</ele>
        <time>2010-05-09T10:05:25Z</time>
      </trkpt>
      <trkpt lat="43.60564" lon="3.69602">
        <ele>185</ele>
        <time>2010-05-09T10:05:42Z</time>
      </trkpt>
      <trkpt lat="43.60585" lon="3.6958">
        <ele>195</ele>
        <time>2010-05-09T10:06:01Z</time>
      </trkpt>
      <trkpt lat="43.60564" lon="3.69591">
        <ele>184</ele>
        <time>2010-05-09T10:06:19Z</time>
      </trkpt>
      <trkpt lat="43.60586" lon="3.69588">
        <ele>190</ele>
        <time>2010-05-09T10:06:36Z</time>
      </trkpt>
      <trkpt lat="43.60589" lon="3.69583">
        <ele>188</ele>
        <time>2010-05-09T10:06:54Z</time>
      </trkpt>
      <trkpt lat="43.60598" lon="3.69576">
        <ele>187</ele>
        <time>2010-05-09T10:07:11Z</time>
      </trkpt>
      <trkpt lat="43.60612" lon="3.69566">
        <ele>183</ele>
        <time>2010-05-09T10:07:28Z</time>
      </trkpt>
      <trkpt lat="43.60617" lon="3.6958">
        <ele>184</ele>
        <time>2010-05-09T10:07:44Z</time>
      </trkpt>
      <trkpt lat="43.60618" lon="3.69565">
        <ele>189</ele>
        <time>2010-05-09T10:08:02Z</time>
      </trkpt>
      <trkpt lat="43.60635" lon="3.69561">
        <ele>189</ele>
        <time>2010-05-09T10:08:16Z</time>
      </trkpt>
      <trkpt lat="43.60633" lon="3.69564">
        <ele>190</ele>
        <time>2010-05-09T10:08:31Z</time>
      </trkpt>
      <trkpt lat="43.60631" lon="3.69565">
        <ele>189</ele>
        <time>2010-05-09T10:08:46Z</time>
      </trkpt>
      <trkpt lat="43.60632" lon="3.6956">
        <ele>193</ele>
        <time>2010-05-09T10:09:03Z</time>
      </trkpt>
      <trkpt lat="43.60629" lon="3.69565">
        <ele>191</ele>
        <time>2010-05-09T10:09:20Z</time>
      </trkpt>
      <trkpt lat="43.60628" lon="3.69565">
        <ele>191</ele>
        <time>2010-05-09T10:09:37Z</time>
      </trkpt>
      <trkpt lat="43.60625" lon="3.69566">
        <ele>190</ele>
        <time>2010-05-09T10:09:53Z</time>
      </trkpt>
      <trkpt lat="43.60627" lon="3.69562">
        <ele>188</ele>
        <time>2010-05-09T10:10:13Z</time>
      </trkpt>
      <trkpt lat="43.60627" lon="3.69561">
        <ele>187</ele>
        <time>2010-05-09T10:10:27Z</time>
      </trkpt>
      <trkpt lat="43.60632" lon="3.69566">
        <ele>195</ele>
        <time>2010-05-09T10:10:44Z</time>
      </trkpt>
      <trkpt lat="43.6065" lon="3.69581">
        <ele>187</ele>
        <time>2010-05-09T10:10:59Z</time>
      </trkpt>
      <trkpt lat="43.60688" lon="3.69632">
        <ele>182</ele>
        <time>2010-05-09T10:11:14Z</time>
      </trkpt>
      <trkpt lat="43.60703" lon="3.69686">
        <ele>189</ele>
        <time>2010-05-09T10:11:32Z</time>
      </trkpt>
      <trkpt lat="43.60727" lon="3.69712">
        <ele>208</ele>
        <time>2010-05-09T10:11:47Z</time>
      </trkpt>
      <trkpt lat="43.6076" lon="3.69714">
        <ele>215</ele>
        <time>2010-05-09T10:12:04Z</time>
      </trkpt>
      <trkpt lat="43.60787" lon="3.69703">
        <ele>192</ele>
        <time>2010-05-09T10:12:20Z</time>
      </trkpt>
      <trkpt lat="43.6081" lon="3.69698">
        <ele>201</ele>
        <time>2010-05-09T10:12:37Z</time>
      </trkpt>
      <trkpt lat="43.60828" lon="3.69691">
        <ele>201</ele>
        <time>2010-05-09T10:12:51Z</time>
      </trkpt>
      <trkpt lat="43.60846" lon="3.69685">
        <ele>202</ele>
        <time>2010-05-09T10:13:06Z</time>
      </trkpt>
      <trkpt lat="43.60871" lon="3.69684">
        <ele>208</ele>
        <time>2010-05-09T10:13:23Z</time>
      </trkpt>
      <trkpt lat="43.60886" lon="3.69684">
        <ele>213</ele>
        <time>2010-05-09T10:13:38Z</time>
      </trkpt>
      <trkpt lat="43.609" lon="3.69683">
        <ele>216</ele>
        <time>2010-05-09T10:13:53Z</time>
      </trkpt>
      <trkpt lat="43.60928" lon="3.69677">
        <ele>217</ele>
        <time>2010-05-09T10:14:10Z</time>
      </trkpt>
      <trkpt lat="43.60949" lon="3.69678">
        <ele>218</ele>
        <time>2010-05-09T10:14:25Z</time>
      </trkpt>
      <trkpt lat="43.60973" lon="3.69689">
        <ele>215</ele>
        <time>2010-05-09T10:14:38Z</time>
      </trkpt>
      <trkpt lat="43.60986" lon="3.69704">
        <ele>210</ele>
        <time>2010-05-09T10:14:51Z</time>
      </trkpt>
      <trkpt lat="43.61019" lon="3.6967">
        <ele>209</ele>
        <time>2010-05-09T10:15:06Z</time>
      </trkpt>
      <trkpt lat="43.6105" lon="3.69602">
        <ele>204</ele>
        <time>2010-05-09T10:15:22Z</time>
      </trkpt>
      <trkpt lat="43.61046" lon="3.69557">
        <ele>201</ele>
        <time>2010-05-09T10:15:36Z</time>
      </trkpt>
      <trkpt lat="43.61036" lon="3.69509">
        <ele>202</ele>
        <time>2010-05-09T10:15:50Z</time>
      </trkpt>
      <trkpt lat="43.61023" lon="3.6944">
        <ele>196</ele>
        <time>2010-05-09T10:16:06Z</time>
      </trkpt>
      <trkpt lat="43.61033" lon="3.69379">
        <ele>194</ele>
        <time>2010-05-09T10:16:21Z</time>
      </trkpt>
      <trkpt lat="43.61023" lon="3.69296">
        <ele>191</ele>
        <time>2010-05-09T10:16:37Z</time>
      </trkpt>
      <trkpt lat="43.61018" lon="3.69206">
        <ele>187</ele>
        <time>2010-05-09T10:16:51Z</time>
      </trkpt>
      <trkpt lat="43.61014" lon="3.69194">
        <ele>182</ele>
        <time>2010-05-09T10:17:05Z</time>
      </trkpt>
      <trkpt lat="43.61016" lon="3.69193">
        <ele>185</ele>
        <time>2010-05-09T10:17:21Z</time>
      </trkpt>
      <trkpt lat="43.60985" lon="3.69187">
        <ele>183</ele>
        <time>2010-05-09T10:17:36Z</time>
      </trkpt>
      <trkpt lat="43.60974" lon="3.69175">
        <ele>184</ele>
        <time>2010-05-09T10:17:50Z</time>
      </trkpt>
      <trkpt lat="43.60978" lon="3.69151">
        <ele>186</ele>
        <time>2010-05-09T10:18:06Z</time>
      </trkpt>
      <trkpt lat="43.6097" lon="3.6912">
        <ele>187</ele>
        <time>2010-05-09T10:18:23Z</time>
      </trkpt>
      <trkpt lat="43.60957" lon="3.69072">
        <ele>189</ele>
        <time>2010-05-09T10:18:39Z</time>
      </trkpt>
      <trkpt lat="43.60936" lon="3.69069">
        <ele>193</ele>
        <time>2010-05-09T10:18:54Z</time>
      </trkpt>
      <trkpt lat="43.60927" lon="3.69097">
        <ele>199</ele>
        <time>2010-05-09T10:19:09Z</time>
      </trkpt>
      <trkpt lat="43.60918" lon="3.69108">
        <ele>201</ele>
        <time>2010-05-09T10:19:23Z</time>
      </trkpt>
      <trkpt lat="43.60915" lon="3.69118">
        <ele>204</ele>
        <time>2010-05-09T10:19:38Z</time>
      </trkpt>
      <trkpt lat="43.60914" lon="3.69117">
        <ele>206</ele>
        <time>2010-05-09T10:19:54Z</time>
      </trkpt>
      <trkpt lat="43.60913" lon="3.69116">
        <ele>208</ele>
        <time>2010-05-09T10:20:09Z</time>
      </trkpt>
      <trkpt lat="43.60903" lon="3.69113">
        <ele>211</ele>
        <time>2010-05-09T10:20:24Z</time>
      </trkpt>
      <trkpt lat="43.60898" lon="3.69113">
        <ele>211</ele>
        <time>2010-05-09T10:20:39Z</time>
      </trkpt>
      <trkpt lat="43.60879" lon="3.69087">
        <ele>213</ele>
        <time>2010-05-09T10:20:54Z</time>
      </trkpt>
      <trkpt lat="43.60857" lon="3.69068">
        <ele>214</ele>
        <time>2010-05-09T10:21:09Z</time>
      </trkpt>
      <trkpt lat="43.60841" lon="3.69049">
        <ele>214</ele>
        <time>2010-05-09T10:21:23Z</time>
      </trkpt>
      <trkpt lat="43.60815" lon="3.69043">
        <ele>215</ele>
        <time>2010-05-09T10:21:38Z</time>
      </trkpt>
      <trkpt lat="43.60804" lon="3.69046">
        <ele>214</ele>
        <time>2010-05-09T10:21:52Z</time>
      </trkpt>
      <trkpt lat="43.60803" lon="3.69044">
        <ele>214</ele>
        <time>2010-05-09T10:22:07Z</time>
      </trkpt>
      <trkpt lat="43.60806" lon="3.69043">
        <ele>215</ele>
        <time>2010-05-09T10:22:23Z</time>
      </trkpt>
      <trkpt lat="43.60807" lon="3.69043">
        <ele>215</ele>
        <time>2010-05-09T10:22:38Z</time>
      </trkpt>
      <trkpt lat="43.60792" lon="3.69039">
        <ele>213</ele>
        <time>2010-05-09T10:22:52Z</time>
      </trkpt>
      <trkpt lat="43.60753" lon="3.69035">
        <ele>217</ele>
        <time>2010-05-09T10:23:09Z</time>
      </trkpt>
      <trkpt lat="43.60717" lon="3.69022">
        <ele>215</ele>
        <time>2010-05-09T10:23:24Z</time>
      </trkpt>
      <trkpt lat="43.6071" lon="3.68988">
        <ele>221</ele>
        <time>2010-05-09T10:23:39Z</time>
      </trkpt>
      <trkpt lat="43.60683" lon="3.68943">
        <ele>218</ele>
        <time>2010-05-09T10:23:54Z</time>
      </trkpt>
      <trkpt lat="43.60653" lon="3.68927">
        <ele>221</ele>
        <time>2010-05-09T10:24:09Z</time>
      </trkpt>
      <trkpt lat="43.60623" lon="3.68904">
        <ele>217</ele>
        <time>2010-05-09T10:24:22Z</time>
      </trkpt>
      <trkpt lat="43.60591" lon="3.68856">
        <ele>210</ele>
        <time>2010-05-09T10:24:38Z</time>
      </trkpt>
      <trkpt lat="43.60568" lon="3.68791">
        <ele>183</ele>
        <time>2010-05-09T10:24:56Z</time>
      </trkpt>
      <trkpt lat="43.60529" lon="3.6874">
        <ele>194</ele>
        <time>2010-05-09T10:25:12Z</time>
      </trkpt>
      <trkpt lat="43.60528" lon="3.68688">
        <ele>160</ele>
        <time>2010-05-09T10:25:27Z</time>
      </trkpt>
      <trkpt lat="43.60534" lon="3.68686">
        <ele>177</ele>
        <time>2010-05-09T10:25:43Z</time>
      </trkpt>
      <trkpt lat="43.60529" lon="3.68678">
        <ele>171</ele>
        <time>2010-05-09T10:25:58Z</time>
      </trkpt>
      <trkpt lat="43.60515" lon="3.68664">
        <ele>167</ele>
        <time>2010-05-09T10:26:11Z</time>
      </trkpt>
      <trkpt lat="43.60511" lon="3.68632">
        <ele>166</ele>
        <time>2010-05-09T10:26:26Z</time>
      </trkpt>
      <trkpt lat="43.60509" lon="3.68635">
        <ele>164</ele>
        <time>2010-05-09T10:26:41Z</time>
      </trkpt>
      <trkpt lat="43.60509" lon="3.68635">
        <ele>161</ele>
        <time>2010-05-09T10:26:57Z</time>
      </trkpt>
      <trkpt lat="43.60507" lon="3.68638">
        <ele>160</ele>
        <time>2010-05-09T10:27:12Z</time>
      </trkpt>
      <trkpt lat="43.60508" lon="3.68635">
        <ele>157</ele>
        <time>2010-05-09T10:27:26Z</time>
      </trkpt>
      <trkpt lat="43.60509" lon="3.68634">
        <ele>155</ele>
        <time>2010-05-09T10:27:40Z</time>
      </trkpt>
      <trkpt lat="43.60507" lon="3.68639">
        <ele>155</ele>
        <time>2010-05-09T10:27:53Z</time>
      </trkpt>
      <trkpt lat="43.60501" lon="3.68633">
        <ele>156</ele>
        <time>2010-05-09T10:28:08Z</time>
      </trkpt>
      <trkpt lat="43.60486" lon="3.68624">
        <ele>156</ele>
        <time>2010-05-09T10:28:21Z</time>
      </trkpt>
      <trkpt lat="43.60484" lon="3.68623">
        <ele>156</ele>
        <time>2010-05-09T10:28:35Z</time>
      </trkpt>
      <trkpt lat="43.60486" lon="3.68621">
        <ele>156</ele>
        <time>2010-05-09T10:28:50Z</time>
      </trkpt>
      <trkpt lat="43.60487" lon="3.68619">
        <ele>159</ele>
        <time>2010-05-09T10:29:05Z</time>
      </trkpt>
      <trkpt lat="43.60487" lon="3.68619">
        <ele>158</ele>
        <time>2010-05-09T10:29:20Z</time>
      </trkpt>
      <trkpt lat="43.60474" lon="3.68619">
        <ele>157</ele>
        <time>2010-05-09T10:29:33Z</time>
      </trkpt>
      <trkpt lat="43.60454" lon="3.68622">
        <ele>154</ele>
        <time>2010-05-09T10:29:46Z</time>
      </trkpt>
      <trkpt lat="43.60458" lon="3.68606">
        <ele>154</ele>
        <time>2010-05-09T10:29:59Z</time>
      </trkpt>
      <trkpt lat="43.60442" lon="3.68626">
        <ele>157</ele>
        <time>2010-05-09T10:30:13Z</time>
      </trkpt>
      <trkpt lat="43.60433" lon="3.68656">
        <ele>160</ele>
        <time>2010-05-09T10:30:27Z</time>
      </trkpt>
      <trkpt lat="43.60418" lon="3.68704">
        <ele>162</ele>
        <time>2010-05-09T10:30:42Z</time>
      </trkpt>
      <trkpt lat="43.60394" lon="3.68772">
        <ele>161</ele>
        <time>2010-05-09T10:30:57Z</time>
      </trkpt>
      <trkpt lat="43.60375" lon="3.68847">
        <ele>160</ele>
        <time>2010-05-09T10:31:11Z</time>
      </trkpt>
      <trkpt lat="43.60356" lon="3.68907">
        <ele>163</ele>
        <time>2010-05-09T10:31:25Z</time>
      </trkpt>
      <trkpt lat="43.60345" lon="3.68936">
        <ele>163</ele>
        <time>2010-05-09T10:31:40Z</time>
      </trkpt>
      <trkpt lat="43.60325" lon="3.68926">
        <ele>165</ele>
        <time>2010-05-09T10:31:55Z</time>
      </trkpt>
      <trkpt lat="43.6032" lon="3.68903">
        <ele>163</ele>
        <time>2010-05-09T10:32:12Z</time>
      </trkpt>
      <trkpt lat="43.60337" lon="3.68864">
        <ele>174</ele>
        <time>2010-05-09T10:32:28Z</time>
      </trkpt>
      <trkpt lat="43.6034" lon="3.68835">
        <ele>175</ele>
        <time>2010-05-09T10:32:46Z</time>
      </trkpt>
      <trkpt lat="43.60343" lon="3.68793">
        <ele>177</ele>
        <time>2010-05-09T10:33:04Z</time>
      </trkpt>
      <trkpt lat="43.60363" lon="3.68758">
        <ele>174</ele>
        <time>2010-05-09T10:33:21Z</time>
      </trkpt>
      <trkpt lat="43.60379" lon="3.68731">
        <ele>171</ele>
        <time>2010-05-09T10:33:35Z</time>
      </trkpt>
      <trkpt lat="43.60382" lon="3.68705">
        <ele>173</ele>
        <time>2010-05-09T10:33:48Z</time>
      </trkpt>
      <trkpt lat="43.60379" lon="3.68681">
        <ele>173</ele>
        <time>2010-05-09T10:34:03Z</time>
      </trkpt>
      <trkpt lat="43.60384" lon="3.68645">
        <ele>178</ele>
        <time>2010-05-09T10:34:17Z</time>
      </trkpt>
      <trkpt lat="43.60378" lon="3.68623">
        <ele>175</ele>
        <time>2010-05-09T10:34:30Z</time>
      </trkpt>
      <trkpt lat="43.60365" lon="3.68604">
        <ele>181</ele>
        <time>2010-05-09T10:34:45Z</time>
      </trkpt>
      <trkpt lat="43.60352" lon="3.68583">
        <ele>180</ele>
        <time>2010-05-09T10:34:58Z</time>
      </trkpt>
      <trkpt lat="43.60341" lon="3.68559">
        <ele>179</ele>
        <time>2010-05-09T10:35:11Z</time>
      </trkpt>
      <trkpt lat="43.60333" lon="3.68537">
        <ele>184</ele>
        <time>2010-05-09T10:35:24Z</time>
      </trkpt>
      <trkpt lat="43.60324" lon="3.68514">
        <ele>186</ele>
        <time>2010-05-09T10:35:37Z</time>
      </trkpt>
      <trkpt lat="43.60308" lon="3.68489">
        <ele>185</ele>
        <time>2010-05-09T10:35:52Z</time>
      </trkpt>
      <trkpt lat="43.60289" lon="3.68484">
        <ele>191</ele>
        <time>2010-05-09T10:36:05Z</time>
      </trkpt>
      <trkpt lat="43.60277" lon="3.68486">
        <ele>190</ele>
        <time>2010-05-09T10:36:18Z</time>
      </trkpt>
      <trkpt lat="43.60285" lon="3.68514">
        <ele>193</ele>
        <time>2010-05-09T10:36:33Z</time>
      </trkpt>
      <trkpt lat="43.60284" lon="3.6856">
        <ele>193</ele>
        <time>2010-05-09T10:36:46Z</time>
      </trkpt>
      <trkpt lat="43.60266" lon="3.68597">
        <ele>194</ele>
        <time>2010-05-09T10:36:59Z</time>
      </trkpt>
      <trkpt lat="43.60239" lon="3.68577">
        <ele>198</ele>
        <time>2010-05-09T10:37:15Z</time>
      </trkpt>
      <trkpt lat="43.60202" lon="3.68576">
        <ele>196</ele>
        <time>2010-05-09T10:37:28Z</time>
      </trkpt>
      <trkpt lat="43.60172" lon="3.68586">
        <ele>191</ele>
        <time>2010-05-09T10:37:41Z</time>
      </trkpt>
      <trkpt lat="43.6015" lon="3.68609">
        <ele>190</ele>
        <time>2010-05-09T10:37:54Z</time>
      </trkpt>
      <trkpt lat="43.60114" lon="3.68637">
        <ele>190</ele>
        <time>2010-05-09T10:38:07Z</time>
      </trkpt>
      <trkpt lat="43.60071" lon="3.68638">
        <ele>192</ele>
        <time>2010-05-09T10:38:22Z</time>
      </trkpt>
      <trkpt lat="43.60041" lon="3.68647">
        <ele>194</ele>
        <time>2010-05-09T10:38:36Z</time>
      </trkpt>
      <trkpt lat="43.60028" lon="3.68656">
        <ele>195</ele>
        <time>2010-05-09T10:38:49Z</time>
      </trkpt>
      <trkpt lat="43.60015" lon="3.68663">
        <ele>196</ele>
        <time>2010-05-09T10:39:02Z</time>
      </trkpt>
      <trkpt lat="43.60012" lon="3.68663">
        <ele>199</ele>
        <time>2010-05-09T10:39:16Z</time>
      </trkpt>
      <trkpt lat="43.59995" lon="3.68663">
        <ele>199</ele>
        <time>2010-05-09T10:39:29Z</time>
      </trkpt>
      <trkpt lat="43.5999" lon="3.68664">
        <ele>198</ele>
        <time>2010-05-09T10:39:44Z</time>
      </trkpt>
      <trkpt lat="43.59978" lon="3.68664">
        <ele>199</ele>
        <time>2010-05-09T10:39:57Z</time>
      </trkpt>
      <trkpt lat="43.5997" lon="3.6867">
        <ele>202</ele>
        <time>2010-05-09T10:40:11Z</time>
      </trkpt>
      <trkpt lat="43.59966" lon="3.68684">
        <ele>206</ele>
        <time>2010-05-09T10:40:25Z</time>
      </trkpt>
      <trkpt lat="43.5996" lon="3.68705">
        <ele>207</ele>
        <time>2010-05-09T10:40:38Z</time>
      </trkpt>
      <trkpt lat="43.59953" lon="3.68729">
        <ele>208</ele>
        <time>2010-05-09T10:40:51Z</time>
      </trkpt>
      <trkpt lat="43.59939" lon="3.68753">
        <ele>208</ele>
        <time>2010-05-09T10:41:03Z</time>
      </trkpt>
      <trkpt lat="43.59918" lon="3.68766">
        <ele>209</ele>
        <time>2010-05-09T10:41:17Z</time>
      </trkpt>
      <trkpt lat="43.59893" lon="3.68793">
        <ele>210</ele>
        <time>2010-05-09T10:41:32Z</time>
      </trkpt>
      <trkpt lat="43.59867" lon="3.68805">
        <ele>214</ele>
        <time>2010-05-09T10:41:45Z</time>
      </trkpt>
      <trkpt lat="43.59818" lon="3.68807">
        <ele>214</ele>
        <time>2010-05-09T10:42:01Z</time>
      </trkpt>
      <trkpt lat="43.59763" lon="3.68782">
        <ele>194</ele>
        <time>2010-05-09T10:42:16Z</time>
      </trkpt>
      <trkpt lat="43.5974" lon="3.68759">
        <ele>213</ele>
        <time>2010-05-09T10:42:31Z</time>
      </trkpt>
      <trkpt lat="43.59728" lon="3.68759">
        <ele>209</ele>
        <time>2010-05-09T10:42:44Z</time>
      </trkpt>
      <trkpt lat="43.5973" lon="3.68759">
        <ele>212</ele>
        <time>2010-05-09T10:43:01Z</time>
      </trkpt>
      <trkpt lat="43.59726" lon="3.68761">
        <ele>213</ele>
        <time>2010-05-09T10:43:16Z</time>
      </trkpt>
      <trkpt lat="43.59724" lon="3.68763">
        <ele>215</ele>
        <time>2010-05-09T10:43:31Z</time>
      </trkpt>
      <trkpt lat="43.59705" lon="3.68771">
        <ele>217</ele>
        <time>2010-05-09T10:43:46Z</time>
      </trkpt>
      <trkpt lat="43.59678" lon="3.68781">
        <ele>214</ele>
        <time>2010-05-09T10:44:00Z</time>
      </trkpt>
      <trkpt lat="43.59638" lon="3.68769">
        <ele>218</ele>
        <time>2010-05-09T10:44:15Z</time>
      </trkpt>
      <trkpt lat="43.59606" lon="3.68743">
        <ele>225</ele>
        <time>2010-05-09T10:44:29Z</time>
      </trkpt>
      <trkpt lat="43.59589" lon="3.68735">
        <ele>226</ele>
        <time>2010-05-09T10:44:43Z</time>
      </trkpt>
      <trkpt lat="43.59566" lon="3.68724">
        <ele>227</ele>
        <time>2010-05-09T10:44:58Z</time>
      </trkpt>
      <trkpt lat="43.59557" lon="3.6871">
        <ele>230</ele>
        <time>2010-05-09T10:45:13Z</time>
      </trkpt>
      <trkpt lat="43.59539" lon="3.68711">
        <ele>232</ele>
        <time>2010-05-09T10:45:28Z</time>
      </trkpt>
      <trkpt lat="43.59528" lon="3.687">
        <ele>239</ele>
        <time>2010-05-09T10:45:43Z</time>
      </trkpt>
      <trkpt lat="43.59521" lon="3.68695">
        <ele>238</ele>
        <time>2010-05-09T10:45:57Z</time>
      </trkpt>
      <trkpt lat="43.59504" lon="3.68698">
        <ele>236</ele>
        <time>2010-05-09T10:46:12Z</time>
      </trkpt>
      <trkpt lat="43.59498" lon="3.68699">
        <ele>237</ele>
        <time>2010-05-09T10:46:26Z</time>
      </trkpt>
      <trkpt lat="43.59476" lon="3.68694">
        <ele>240</ele>
        <time>2010-05-09T10:46:41Z</time>
      </trkpt>
      <trkpt lat="43.59448" lon="3.68672">
        <ele>237</ele>
        <time>2010-05-09T10:46:54Z</time>
      </trkpt>
      <trkpt lat="43.59388" lon="3.68657">
        <ele>235</ele>
        <time>2010-05-09T10:47:09Z</time>
      </trkpt>
      <trkpt lat="43.59328" lon="3.68624">
        <ele>233</ele>
        <time>2010-05-09T10:47:26Z</time>
      </trkpt>
      <trkpt lat="43.59296" lon="3.68631">
        <ele>217</ele>
        <time>2010-05-09T10:47:42Z</time>
      </trkpt>
      <trkpt lat="43.59292" lon="3.68623">
        <ele>229</ele>
        <time>2010-05-09T10:47:58Z</time>
      </trkpt>
      <trkpt lat="43.59293" lon="3.68629">
        <ele>222</ele>
        <time>2010-05-09T10:48:13Z</time>
      </trkpt>
      <trkpt lat="43.59292" lon="3.68629">
        <ele>223</ele>
        <time>2010-05-09T10:48:29Z</time>
      </trkpt>
      <trkpt lat="43.59294" lon="3.68628">
        <ele>221</ele>
        <time>2010-05-09T10:48:42Z</time>
      </trkpt>
      <trkpt lat="43.59296" lon="3.68627">
        <ele>219</ele>
        <time>2010-05-09T10:48:58Z</time>
      </trkpt>
      <trkpt lat="43.59296" lon="3.68623">
        <ele>217</ele>
        <time>2010-05-09T10:49:13Z</time>
      </trkpt>
      <trkpt lat="43.59295" lon="3.68624">
        <ele>218</ele>
        <time>2010-05-09T10:49:27Z</time>
      </trkpt>
      <trkpt lat="43.59295" lon="3.68625">
        <ele>220</ele>
        <time>2010-05-09T10:49:41Z</time>
      </trkpt>
      <trkpt lat="43.59293" lon="3.68629">
        <ele>221</ele>
        <time>2010-05-09T10:49:55Z</time>
      </trkpt>
      <trkpt lat="43.59292" lon="3.68624">
        <ele>217</ele>
        <time>2010-05-09T10:50:10Z</time>
      </trkpt>
      <trkpt lat="43.59291" lon="3.68624">
        <ele>217</ele>
        <time>2010-05-09T10:50:24Z</time>
      </trkpt>
      <trkpt lat="43.59299" lon="3.68633">
        <ele>211</ele>
        <time>2010-05-09T10:50:41Z</time>
      </trkpt>
      <trkpt lat="43.59306" lon="3.68632">
        <ele>210</ele>
        <time>2010-05-09T10:50:56Z</time>
      </trkpt>
      <trkpt lat="43.59307" lon="3.68632">
        <ele>213</ele>
        <time>2010-05-09T10:51:11Z</time>
      </trkpt>
      <trkpt lat="43.59307" lon="3.68632">
        <ele>212</ele>
        <time>2010-05-09T10:51:28Z</time>
      </trkpt>
      <trkpt lat="43.59307" lon="3.68632">
        <ele>212</ele>
        <time>2010-05-09T10:51:46Z</time>
      </trkpt>
      <trkpt lat="43.59307" lon="3.68632">
        <ele>213</ele>
        <time>2010-05-09T10:52:05Z</time>
      </trkpt>
      <trkpt lat="43.59307" lon="3.68632">
        <ele>213</ele>
        <time>2010-05-09T10:52:23Z</time>
      </trkpt>
      <trkpt lat="43.59307" lon="3.68632">
        <ele>212</ele>
        <time>2010-05-09T10:52:40Z</time>
      </trkpt>
      <trkpt lat="43.59307" lon="3.68632">
        <ele>211</ele>
        <time>2010-05-09T10:52:57Z</time>
      </trkpt>
      <trkpt lat="43.59307" lon="3.68632">
        <ele>211</ele>
        <time>2010-05-09T10:53:14Z</time>
      </trkpt>
      <trkpt lat="43.59307" lon="3.68632">
        <ele>210</ele>
        <time>2010-05-09T10:53:32Z</time>
      </trkpt>
      <trkpt lat="43.59307" lon="3.68632">
        <ele>211</ele>
        <time>2010-05-09T10:53:50Z</time>
      </trkpt>
      <trkpt lat="43.59307" lon="3.68632">
        <ele>211</ele>
        <time>2010-05-09T10:54:07Z</time>
      </trkpt>
      <trkpt lat="43.59307" lon="3.68632">
        <ele>211</ele>
        <time>2010-05-09T10:54:24Z</time>
      </trkpt>
      <trkpt lat="43.59307" lon="3.68632">
        <ele>210</ele>
        <time>2010-05-09T10:54:41Z</time>
      </trkpt>
      <trkpt lat="43.59309" lon="3.68633">
        <ele>210</ele>
        <time>2010-05-09T10:54:58Z</time>
      </trkpt>
      <trkpt lat="43.59309" lon="3.68633">
        <ele>210</ele>
        <time>2010-05-09T10:55:16Z</time>
      </trkpt>
      <trkpt lat="43.59309" lon="3.68633">
        <ele>210</ele>
        <time>2010-05-09T10:55:33Z</time>
      </trkpt>
      <trkpt lat="43.59309" lon="3.68633">
        <ele>210</ele>
        <time>2010-05-09T10:55:50Z</time>
      </trkpt>
      <trkpt lat="43.59309" lon="3.68633">
        <ele>210</ele>
        <time>2010-05-09T10:56:07Z</time>
      </trkpt>
      <trkpt lat="43.59309" lon="3.68633">
        <ele>210</ele>
        <time>2010-05-09T10:56:24Z</time>
      </trkpt>
      <trkpt lat="43.59309" lon="3.68633">
        <ele>210</ele>
        <time>2010-05-09T10:56:41Z</time>
      </trkpt>
      <trkpt lat="43.59309" lon="3.68633">
        <ele>210</ele>
        <time>2010-05-09T10:56:58Z</time>
      </trkpt>
      <trkpt lat="43.59309" lon="3.68633">
        <ele>210</ele>
        <time>2010-05-09T10:57:15Z</time>
      </trkpt>
      <trkpt lat="43.59309" lon="3.68633">
        <ele>210</ele>
        <time>2010-05-09T10:57:32Z</time>
      </trkpt>
      <trkpt lat="43.59309" lon="3.68633">
        <ele>210</ele>
        <time>2010-05-09T10:57:49Z</time>
      </trkpt>
      <trkpt lat="43.59309" lon="3.68633">
        <ele>210</ele>
        <time>2010-05-09T10:58:07Z</time>
      </trkpt>
      <trkpt lat="43.59309" lon="3.68633">
        <ele>210</ele>
        <time>2010-05-09T10:58:24Z</time>
      </trkpt>
      <trkpt lat="43.59309" lon="3.68633">
        <ele>210</ele>
        <time>2010-05-09T10:58:41Z</time>
      </trkpt>
      <trkpt lat="43.59309" lon="3.68633">
        <ele>210</ele>
        <time>2010-05-09T10:58:58Z</time>
      </trkpt>
      <trkpt lat="43.59309" lon="3.68633">
        <ele>210</ele>
        <time>2010-05-09T10:59:15Z</time>
      </trkpt>
      <trkpt lat="43.59309" lon="3.68633">
        <ele>209</ele>
        <time>2010-05-09T10:59:32Z</time>
      </trkpt>
      <trkpt lat="43.59309" lon="3.68633">
        <ele>210</ele>
        <time>2010-05-09T10:59:49Z</time>
      </trkpt>
      <trkpt lat="43.59309" lon="3.68633">
        <ele>210</ele>
        <time>2010-05-09T11:00:06Z</time>
      </trkpt>
      <trkpt lat="43.59309" lon="3.68633">
        <ele>210</ele>
        <time>2010-05-09T11:00:23Z</time>
      </trkpt>
      <trkpt lat="43.59306" lon="3.68634">
        <ele>208</ele>
        <time>2010-05-09T11:00:38Z</time>
      </trkpt>
      <trkpt lat="43.59303" lon="3.68625">
        <ele>217</ele>
        <time>2010-05-09T11:00:53Z</time>
      </trkpt>
      <trkpt lat="43.59302" lon="3.6863">
        <ele>217</ele>
        <time>2010-05-09T11:01:08Z</time>
      </trkpt>
      <trkpt lat="43.59263" lon="3.68653">
        <ele>213</ele>
        <time>2010-05-09T11:01:21Z</time>
      </trkpt>
      <trkpt lat="43.59219" lon="3.68774">
        <ele>206</ele>
        <time>2010-05-09T11:01:36Z</time>
      </trkpt>
      <trkpt lat="43.59192" lon="3.68779">
        <ele>208</ele>
        <time>2010-05-09T11:01:54Z</time>
      </trkpt>
      <trkpt lat="43.59151" lon="3.68647">
        <ele>195</ele>
        <time>2010-05-09T11:02:08Z</time>
      </trkpt>
      <trkpt lat="43.59067" lon="3.68566">
        <ele>185</ele>
        <time>2010-05-09T11:02:22Z</time>
      </trkpt>
      <trkpt lat="43.58931" lon="3.68573">
        <ele>167</ele>
        <time>2010-05-09T11:02:39Z</time>
      </trkpt>
      <trkpt lat="43.58817" lon="3.68607">
        <ele>172</ele>
        <time>2010-05-09T11:02:53Z</time>
      </trkpt>
      <trkpt lat="43.58804" lon="3.6846">
        <ele>155</ele>
        <time>2010-05-09T11:03:08Z</time>
      </trkpt>
      <trkpt lat="43.58783" lon="3.68418">
        <ele>159</ele>
        <time>2010-05-09T11:03:26Z</time>
      </trkpt>
      <trkpt lat="43.58749" lon="3.68478">
        <ele>159</ele>
        <time>2010-05-09T11:03:42Z</time>
      </trkpt>
      <trkpt lat="43.58691" lon="3.68464">
        <ele>161</ele>
        <time>2010-05-09T11:04:02Z</time>
      </trkpt>
      <trkpt lat="43.58699" lon="3.68522">
        <ele>167</ele>
        <time>2010-05-09T11:04:20Z</time>
      </trkpt>
      <trkpt lat="43.58694" lon="3.68586">
        <ele>166</ele>
        <time>2010-05-09T11:04:36Z</time>
      </trkpt>
      <trkpt lat="43.58667" lon="3.68631">
        <ele>163</ele>
        <time>2010-05-09T11:04:50Z</time>
      </trkpt>
      <trkpt lat="43.58685" lon="3.68682">
        <ele>168</ele>
        <time>2010-05-09T11:05:05Z</time>
      </trkpt>
      <trkpt lat="43.58681" lon="3.68722">
        <ele>171</ele>
        <time>2010-05-09T11:05:20Z</time>
      </trkpt>
      <trkpt lat="43.58667" lon="3.68759">
        <ele>174</ele>
        <time>2010-05-09T11:05:34Z</time>
      </trkpt>
      <trkpt lat="43.58649" lon="3.68806">
        <ele>175</ele>
        <time>2010-05-09T11:05:49Z</time>
      </trkpt>
      <trkpt lat="43.58627" lon="3.68842">
        <ele>177</ele>
        <time>2010-05-09T11:06:06Z</time>
      </trkpt>
      <trkpt lat="43.58641" lon="3.6888">
        <ele>181</ele>
        <time>2010-05-09T11:06:19Z</time>
      </trkpt>
      <trkpt lat="43.58662" lon="3.68898">
        <ele>188</ele>
        <time>2010-05-09T11:06:34Z</time>
      </trkpt>
      <trkpt lat="43.58662" lon="3.68948">
        <ele>186</ele>
        <time>2010-05-09T11:06:48Z</time>
      </trkpt>
      <trkpt lat="43.58631" lon="3.68981">
        <ele>189</ele>
        <time>2010-05-09T11:07:04Z</time>
      </trkpt>
      <trkpt lat="43.58591" lon="3.69007">
        <ele>189</ele>
        <time>2010-05-09T11:07:19Z</time>
      </trkpt>
      <trkpt lat="43.58562" lon="3.69038">
        <ele>190</ele>
        <time>2010-05-09T11:07:34Z</time>
      </trkpt>
      <trkpt lat="43.58549" lon="3.69037">
        <ele>193</ele>
        <time>2010-05-09T11:07:49Z</time>
      </trkpt>
      <trkpt lat="43.58566" lon="3.69018">
        <ele>193</ele>
        <time>2010-05-09T11:08:02Z</time>
      </trkpt>
      <trkpt lat="43.58543" lon="3.69045">
        <ele>190</ele>
        <time>2010-05-09T11:08:17Z</time>
      </trkpt>
      <trkpt lat="43.58505" lon="3.69091">
        <ele>191</ele>
        <time>2010-05-09T11:08:32Z</time>
      </trkpt>
      <trkpt lat="43.58469" lon="3.69182">
        <ele>184</ele>
        <time>2010-05-09T11:08:47Z</time>
      </trkpt>
      <trkpt lat="43.58432" lon="3.69288">
        <ele>178</ele>
        <time>2010-05-09T11:09:01Z</time>
      </trkpt>
      <trkpt lat="43.5836" lon="3.69359">
        <ele>177</ele>
        <time>2010-05-09T11:09:14Z</time>
      </trkpt>
      <trkpt lat="43.58292" lon="3.69452">
        <ele>175</ele>
        <time>2010-05-09T11:09:28Z</time>
      </trkpt>
      <trkpt lat="43.58234" lon="3.69577">
        <ele>167</ele>
        <time>2010-05-09T11:09:41Z</time>
      </trkpt>
      <trkpt lat="43.58173" lon="3.69669">
        <ele>167</ele>
        <time>2010-05-09T11:09:56Z</time>
      </trkpt>
      <trkpt lat="43.58123" lon="3.69692">
        <ele>168</ele>
        <time>2010-05-09T11:10:11Z</time>
      </trkpt>
      <trkpt lat="43.58078" lon="3.69722">
        <ele>168</ele>
        <time>2010-05-09T11:10:26Z</time>
      </trkpt>
      <trkpt lat="43.58022" lon="3.69769">
        <ele>164</ele>
        <time>2010-05-09T11:10:41Z</time>
      </trkpt>
      <trkpt lat="43.57988" lon="3.69817">
        <ele>172</ele>
        <time>2010-05-09T11:10:56Z</time>
      </trkpt>
      <trkpt lat="43.5796" lon="3.69865">
        <ele>168</ele>
        <time>2010-05-09T11:11:10Z</time>
      </trkpt>
      <trkpt lat="43.57917" lon="3.69919">
        <ele>170</ele>
        <time>2010-05-09T11:11:24Z</time>
      </trkpt>
      <trkpt lat="43.57862" lon="3.6994">
        <ele>171</ele>
        <time>2010-05-09T11:11:37Z</time>
      </trkpt>
      <trkpt lat="43.5777" lon="3.69967">
        <ele>169</ele>
        <time>2010-05-09T11:11:52Z</time>
      </trkpt>
      <trkpt lat="43.57643" lon="3.69971">
        <ele>164</ele>
        <time>2010-05-09T11:12:08Z</time>
      </trkpt>
      <trkpt lat="43.57552" lon="3.70017">
        <ele>158</ele>
        <time>2010-05-09T11:12:23Z</time>
      </trkpt>
      <trkpt lat="43.57473" lon="3.70033">
        <ele>156</ele>
        <time>2010-05-09T11:12:38Z</time>
      </trkpt>
      <trkpt lat="43.57411" lon="3.70053">
        <ele>155</ele>
        <time>2010-05-09T11:12:52Z</time>
      </trkpt>
      <trkpt lat="43.57359" lon="3.70081">
        <ele>158</ele>
        <time>2010-05-09T11:13:07Z</time>
      </trkpt>
      <trkpt lat="43.57333" lon="3.70095">
        <ele>162</ele>
        <time>2010-05-09T11:13:20Z</time>
      </trkpt>
      <trkpt lat="43.57293" lon="3.70113">
        <ele>163</ele>
        <time>2010-05-09T11:13:33Z</time>
      </trkpt>
      <trkpt lat="43.57257" lon="3.70171">
        <ele>162</ele>
        <time>2010-05-09T11:13:48Z</time>
      </trkpt>
      <trkpt lat="43.57187" lon="3.70251">
        <ele>160</ele>
        <time>2010-05-09T11:14:04Z</time>
      </trkpt>
      <trkpt lat="43.57141" lon="3.70368">
        <ele>151</ele>
        <time>2010-05-09T11:14:19Z</time>
      </trkpt>
      <trkpt lat="43.57131" lon="3.70448">
        <ele>148</ele>
        <time>2010-05-09T11:14:32Z</time>
      </trkpt>
      <trkpt lat="43.57129" lon="3.70495">
        <ele>142</ele>
        <time>2010-05-09T11:14:44Z</time>
      </trkpt>
      <trkpt lat="43.57111" lon="3.70545">
        <ele>138</ele>
        <time>2010-05-09T11:14:57Z</time>
      </trkpt>
      <trkpt lat="43.57094" lon="3.70598">
        <ele>131</ele>
        <time>2010-05-09T11:15:11Z</time>
      </trkpt>
      <trkpt lat="43.57066" lon="3.70657">
        <ele>123</ele>
        <time>2010-05-09T11:15:24Z</time>
      </trkpt>
      <trkpt lat="43.57026" lon="3.70696">
        <ele>117</ele>
        <time>2010-05-09T11:15:40Z</time>
      </trkpt>
      <trkpt lat="43.56953" lon="3.70774">
        <ele>115</ele>
        <time>2010-05-09T11:15:55Z</time>
      </trkpt>
      <trkpt lat="43.56866" lon="3.70838">
        <ele>111</ele>
        <time>2010-05-09T11:16:11Z</time>
      </trkpt>
      <trkpt lat="43.56826" lon="3.70904">
        <ele>112</ele>
        <time>2010-05-09T11:16:25Z</time>
      </trkpt>
      <trkpt lat="43.56763" lon="3.7097">
        <ele>110</ele>
        <time>2010-05-09T11:16:40Z</time>
      </trkpt>
      <trkpt lat="43.56713" lon="3.71022">
        <ele>109</ele>
        <time>2010-05-09T11:16:54Z</time>
      </trkpt>
      <trkpt lat="43.56662" lon="3.71068">
        <ele>108</ele>
        <time>2010-05-09T11:17:10Z</time>
      </trkpt>
      <trkpt lat="43.56601" lon="3.71125">
        <ele>103</ele>
        <time>2010-05-09T11:17:25Z</time>
      </trkpt>
      <trkpt lat="43.56569" lon="3.71149">
        <ele>104</ele>
        <time>2010-05-09T11:17:40Z</time>
      </trkpt>
      <trkpt lat="43.56545" lon="3.71185">
        <ele>105</ele>
        <time>2010-05-09T11:17:54Z</time>
      </trkpt>
      <trkpt lat="43.56508" lon="3.7125">
        <ele>101</ele>
        <time>2010-05-09T11:18:08Z</time>
      </trkpt>
      <trkpt lat="43.56469" lon="3.71288">
        <ele>100</ele>
        <time>2010-05-09T11:18:23Z</time>
      </trkpt>
      <trkpt lat="43.56401" lon="3.71299">
        <ele>99</ele>
        <time>2010-05-09T11:18:38Z</time>
      </trkpt>
      <trkpt lat="43.56329" lon="3.71329">
        <ele>93</ele>
        <time>2010-05-09T11:18:53Z</time>
      </trkpt>
      <trkpt lat="43.56301" lon="3.7135">
        <ele>95</ele>
        <time>2010-05-09T11:19:07Z</time>
      </trkpt>
      <trkpt lat="43.56273" lon="3.71357">
        <ele>95</ele>
        <time>2010-05-09T11:19:20Z</time>
      </trkpt>
      <trkpt lat="43.56257" lon="3.71382">
        <ele>93</ele>
        <time>2010-05-09T11:19:33Z</time>
      </trkpt>
      <trkpt lat="43.56236" lon="3.71407">
        <ele>97</ele>
        <time>2010-05-09T11:19:48Z</time>
      </trkpt>
      <trkpt lat="43.56214" lon="3.71449">
        <ele>98</ele>
        <time>2010-05-09T11:20:04Z</time>
      </trkpt>
      <trkpt lat="43.562" lon="3.71479">
        <ele>99</ele>
        <time>2010-05-09T11:20:17Z</time>
      </trkpt>
      <trkpt lat="43.562" lon="3.71526">
        <ele>99</ele>
        <time>2010-05-09T11:20:32Z</time>
      </trkpt>
      <trkpt lat="43.56214" lon="3.7156">
        <ele>104</ele>
        <time>2010-05-09T11:20:46Z</time>
      </trkpt>
      <trkpt lat="43.56212" lon="3.71561">
        <ele>106</ele>
        <time>2010-05-09T11:21:01Z</time>
      </trkpt>
      <trkpt lat="43.56211" lon="3.71559">
        <ele>107</ele>
        <time>2010-05-09T11:21:15Z</time>
      </trkpt>
      <trkpt lat="43.56211" lon="3.71561">
        <ele>108</ele>
        <time>2010-05-09T11:21:29Z</time>
      </trkpt>
      <trkpt lat="43.56215" lon="3.71567">
        <ele>111</ele>
        <time>2010-05-09T11:21:42Z</time>
      </trkpt>
      <trkpt lat="43.56218" lon="3.71571">
        <ele>108</ele>
        <time>2010-05-09T11:21:55Z</time>
      </trkpt>
      <trkpt lat="43.56226" lon="3.71586">
        <ele>108</ele>
        <time>2010-05-09T11:22:08Z</time>
      </trkpt>
      <trkpt lat="43.56253" lon="3.71622">
        <ele>109</ele>
        <time>2010-05-09T11:22:23Z</time>
      </trkpt>
      <trkpt lat="43.56276" lon="3.71663">
        <ele>110</ele>
        <time>2010-05-09T11:22:36Z</time>
      </trkpt>
      <trkpt lat="43.56298" lon="3.7172">
        <ele>113</ele>
        <time>2010-05-09T11:22:50Z</time>
      </trkpt>
      <trkpt lat="43.56311" lon="3.71771">
        <ele>114</ele>
        <time>2010-05-09T11:23:06Z</time>
      </trkpt>
      <trkpt lat="43.56325" lon="3.71839">
        <ele>112</ele>
        <time>2010-05-09T11:23:21Z</time>
      </trkpt>
      <trkpt lat="43.56329" lon="3.71932">
        <ele>109</ele>
        <time>2010-05-09T11:23:36Z</time>
      </trkpt>
      <trkpt lat="43.5633" lon="3.72022">
        <ele>111</ele>
        <time>2010-05-09T11:23:50Z</time>
      </trkpt>
      <trkpt lat="43.56329" lon="3.72119">
        <ele>110</ele>
        <time>2010-05-09T11:24:05Z</time>
      </trkpt>
      <trkpt lat="43.56329" lon="3.72204">
        <ele>109</ele>
        <time>2010-05-09T11:24:20Z</time>
      </trkpt>
      <trkpt lat="43.56351" lon="3.72284">
        <ele>107</ele>
        <time>2010-05-09T11:24:34Z</time>
      </trkpt>
      <trkpt lat="43.56374" lon="3.72344">
        <ele>103</ele>
        <time>2010-05-09T11:24:47Z</time>
      </trkpt>
      <trkpt lat="43.56415" lon="3.72406">
        <ele>108</ele>
        <time>2010-05-09T11:25:00Z</time>
      </trkpt>
      <trkpt lat="43.5647" lon="3.72469">
        <ele>109</ele>
        <time>2010-05-09T11:25:15Z</time>
      </trkpt>
      <trkpt lat="43.56525" lon="3.72519">
        <ele>111</ele>
        <time>2010-05-09T11:25:29Z</time>
      </trkpt>
      <trkpt lat="43.56586" lon="3.72581">
        <ele>113</ele>
        <time>2010-05-09T11:25:44Z</time>
      </trkpt>
      <trkpt lat="43.56637" lon="3.72639">
        <ele>115</ele>
        <time>2010-05-09T11:25:59Z</time>
      </trkpt>
      <trkpt lat="43.56696" lon="3.72695">
        <ele>112</ele>
        <time>2010-05-09T11:26:13Z</time>
      </trkpt>
      <trkpt lat="43.56755" lon="3.72763">
        <ele>114</ele>
        <time>2010-05-09T11:26:28Z</time>
      </trkpt>
      <trkpt lat="43.56796" lon="3.7281">
        <ele>112</ele>
        <time>2010-05-09T11:26:42Z</time>
      </trkpt>
      <trkpt lat="43.56822" lon="3.72858">
        <ele>114</ele>
        <time>2010-05-09T11:26:55Z</time>
      </trkpt>
      <trkpt lat="43.56859" lon="3.72898">
        <ele>119</ele>
        <time>2010-05-09T11:27:08Z</time>
      </trkpt>
      <trkpt lat="43.56889" lon="3.72952">
        <ele>117</ele>
        <time>2010-05-09T11:27:21Z</time>
      </trkpt>
      <trkpt lat="43.56924" lon="3.73011">
        <ele>114</ele>
        <time>2010-05-09T11:27:36Z</time>
      </trkpt>
      <trkpt lat="43.56954" lon="3.73059">
        <ele>116</ele>
        <time>2010-05-09T11:27:50Z</time>
      </trkpt>
      <trkpt lat="43.56983" lon="3.73107">
        <ele>116</ele>
        <time>2010-05-09T11:28:06Z</time>
      </trkpt>
      <trkpt lat="43.57005" lon="3.73143">
        <ele>117</ele>
        <time>2010-05-09T11:28:19Z</time>
      </trkpt>
      <trkpt lat="43.57026" lon="3.73183">
        <ele>115</ele>
        <time>2010-05-09T11:28:32Z</time>
      </trkpt>
      <trkpt lat="43.57053" lon="3.73228">
        <ele>115</ele>
        <time>2010-05-09T11:28:45Z</time>
      </trkpt>
      <trkpt lat="43.57081" lon="3.73273">
        <ele>117</ele>
        <time>2010-05-09T11:28:58Z</time>
      </trkpt>
      <trkpt lat="43.57109" lon="3.73324">
        <ele>116</ele>
        <time>2010-05-09T11:29:11Z</time>
      </trkpt>
      <trkpt lat="43.57145" lon="3.73393">
        <ele>117</ele>
        <time>2010-05-09T11:29:26Z</time>
      </trkpt>
      <trkpt lat="43.57182" lon="3.73451">
        <ele>116</ele>
        <time>2010-05-09T11:29:39Z</time>
      </trkpt>
      <trkpt lat="43.57215" lon="3.73512">
        <ele>115</ele>
        <time>2010-05-09T11:29:54Z</time>
      </trkpt>
      <trkpt lat="43.57241" lon="3.73562">
        <ele>116</ele>
        <time>2010-05-09T11:30:08Z</time>
      </trkpt>
      <trkpt lat="43.5727" lon="3.73617">
        <ele>118</ele>
        <time>2010-05-09T11:30:21Z</time>
      </trkpt>
      <trkpt lat="43.57302" lon="3.7368">
        <ele>117</ele>
        <time>2010-05-09T11:30:35Z</time>
      </trkpt>
      <trkpt lat="43.57337" lon="3.73733">
        <ele>118</ele>
        <time>2010-05-09T11:30:48Z</time>
      </trkpt>
      <trkpt lat="43.57375" lon="3.73802">
        <ele>115</ele>
        <time>2010-05-09T11:31:02Z</time>
      </trkpt>
      <trkpt lat="43.57409" lon="3.73866">
        <ele>114</ele>
        <time>2010-05-09T11:31:15Z</time>
      </trkpt>
      <trkpt lat="43.57443" lon="3.7393">
        <ele>116</ele>
        <time>2010-05-09T11:31:28Z</time>
      </trkpt>
      <trkpt lat="43.57493" lon="3.74">
        <ele>117</ele>
        <time>2010-05-09T11:31:43Z</time>
      </trkpt>
      <trkpt lat="43.57545" lon="3.74063">
        <ele>120</ele>
        <time>2010-05-09T11:31:56Z</time>
      </trkpt>
      <trkpt lat="43.57614" lon="3.74137">
        <ele>118</ele>
        <time>2010-05-09T11:32:10Z</time>
      </trkpt>
      <trkpt lat="43.57674" lon="3.74201">
        <ele>115</ele>
        <time>2010-05-09T11:32:23Z</time>
      </trkpt>
      <trkpt lat="43.57733" lon="3.74264">
        <ele>118</ele>
        <time>2010-05-09T11:32:36Z</time>
      </trkpt>
      <trkpt lat="43.57798" lon="3.74335">
        <ele>112</ele>
        <time>2010-05-09T11:32:50Z</time>
      </trkpt>
      <trkpt lat="43.57847" lon="3.74419">
        <ele>116</ele>
        <time>2010-05-09T11:33:06Z</time>
      </trkpt>
      <trkpt lat="43.57888" lon="3.74509">
        <ele>118</ele>
        <time>2010-05-09T11:33:21Z</time>
      </trkpt>
      <trkpt lat="43.57927" lon="3.74599">
        <ele>119</ele>
        <time>2010-05-09T11:33:37Z</time>
      </trkpt>
      <trkpt lat="43.57965" lon="3.74674">
        <ele>111</ele>
        <time>2010-05-09T11:33:50Z</time>
      </trkpt>
      <trkpt lat="43.58011" lon="3.74759">
        <ele>116</ele>
        <time>2010-05-09T11:34:04Z</time>
      </trkpt>
      <trkpt lat="43.58043" lon="3.7484">
        <ele>112</ele>
        <time>2010-05-09T11:34:17Z</time>
      </trkpt>
      <trkpt lat="43.58077" lon="3.74902">
        <ele>113</ele>
        <time>2010-05-09T11:34:31Z</time>
      </trkpt>
      <trkpt lat="43.58108" lon="3.74966">
        <ele>111</ele>
        <time>2010-05-09T11:34:44Z</time>
      </trkpt>
      <trkpt lat="43.58141" lon="3.75041">
        <ele>116</ele>
        <time>2010-05-09T11:34:59Z</time>
      </trkpt>
      <trkpt lat="43.58183" lon="3.75133">
        <ele>118</ele>
        <time>2010-05-09T11:35:14Z</time>
      </trkpt>
      <trkpt lat="43.58232" lon="3.75236">
        <ele>109</ele>
        <time>2010-05-09T11:35:29Z</time>
      </trkpt>
      <trkpt lat="43.58273" lon="3.75336">
        <ele>110</ele>
        <time>2010-05-09T11:35:45Z</time>
      </trkpt>
      <trkpt lat="43.58308" lon="3.7543">
        <ele>108</ele>
        <time>2010-05-09T11:35:58Z</time>
      </trkpt>
      <trkpt lat="43.58352" lon="3.75535">
        <ele>105</ele>
        <time>2010-05-09T11:36:12Z</time>
      </trkpt>
      <trkpt lat="43.5839" lon="3.7561">
        <ele>105</ele>
        <time>2010-05-09T11:36:25Z</time>
      </trkpt>
      <trkpt lat="43.5843" lon="3.75714">
        <ele>105</ele>
        <time>2010-05-09T11:36:39Z</time>
      </trkpt>
      <trkpt lat="43.58441" lon="3.75827">
        <ele>106</ele>
        <time>2010-05-09T11:36:54Z</time>
      </trkpt>
      <trkpt lat="43.58398" lon="3.75967">
        <ele>101</ele>
        <time>2010-05-09T11:37:09Z</time>
      </trkpt>
      <trkpt lat="43.58348" lon="3.76085">
        <ele>97</ele>
        <time>2010-05-09T11:37:23Z</time>
      </trkpt>
      <trkpt lat="43.58335" lon="3.76165">
        <ele>100</ele>
        <time>2010-05-09T11:37:38Z</time>
      </trkpt>
      <trkpt lat="43.58311" lon="3.76229">
        <ele>98</ele>
        <time>2010-05-09T11:37:54Z</time>
      </trkpt>
      <trkpt lat="43.58279" lon="3.76271">
        <ele>99</ele>
        <time>2010-05-09T11:38:09Z</time>
      </trkpt>
      <trkpt lat="43.58281" lon="3.76278">
        <ele>97</ele>
        <time>2010-05-09T11:38:26Z</time>
      </trkpt>
      <trkpt lat="43.58279" lon="3.7628">
        <ele>95</ele>
        <time>2010-05-09T11:38:43Z</time>
      </trkpt>
    </trkseg>
  </trk>
</gpx>